<?xml version="1.0" encoding="UTF-8" standalone="no" ?>
<gpx xmlns="http://www.topografix.com/GPX/1/1" xmlns:xsi="http://www.w3.org/2001/XMLSchema-instance" xsi:schemaLocation="http://www.topografix.com/GPX/1/1 http://www.topografix.com/GPX/1/1/gpx.xsd" version="1.1" creator="VisuGPX - https://www.visugpx.com">
  <metadata>
    <name>Sentiers du Bruguet</name>
    <desc><![CDATA[Petite sortie ludique du midi...]]></desc>
  </metadata>
  <trk>
    <name><![CDATA[Valmasque - Sentiers de Ross]]></name>
    <desc><![CDATA[Sortie VTT avec Gasoline et Richard sur les sentiers de Ross. Beau temps d'hiver. Très sympa]]></desc>
    <trkseg>
      <trkpt lat="43.62851" lon="7.03623">
        <ele>200.80000305176</ele>
        <time>2011-01-28T11:03:08.000Z</time>
      </trkpt>
      <trkpt lat="43.6285" lon="7.03606">
        <ele>201.19999694824</ele>
        <time>2011-01-28T11:03:15.000Z</time>
      </trkpt>
      <trkpt lat="43.62846" lon="7.03598">
        <ele>201.19999694824</ele>
        <time>2011-01-28T11:03:19.000Z</time>
      </trkpt>
      <trkpt lat="43.62838" lon="7.03591">
        <ele>201.60000610352</ele>
        <time>2011-01-28T11:03:25.000Z</time>
      </trkpt>
      <trkpt lat="43.62835" lon="7.03586">
        <ele>201.80000305176</ele>
        <time>2011-01-28T11:03:27.000Z</time>
      </trkpt>
      <trkpt lat="43.62835" lon="7.03568">
        <ele>202.19999694824</ele>
        <time>2011-01-28T11:03:32.000Z</time>
      </trkpt>
      <trkpt lat="43.62839" lon="7.03552">
        <ele>202.39999389648</ele>
        <time>2011-01-28T11:03:38.000Z</time>
      </trkpt>
      <trkpt lat="43.62847" lon="7.03526">
        <ele>202.60000610352</ele>
        <time>2011-01-28T11:03:47.000Z</time>
      </trkpt>
      <trkpt lat="43.62857" lon="7.03509">
        <ele>202.19999694824</ele>
        <time>2011-01-28T11:03:55.000Z</time>
      </trkpt>
      <trkpt lat="43.62866" lon="7.03493">
        <ele>201.60000610352</ele>
        <time>2011-01-28T11:04:02.000Z</time>
      </trkpt>
      <trkpt lat="43.62875" lon="7.03473">
        <ele>201</ele>
        <time>2011-01-28T11:04:09.000Z</time>
      </trkpt>
      <trkpt lat="43.62886" lon="7.03456">
        <ele>200.19999694824</ele>
        <time>2011-01-28T11:04:15.000Z</time>
      </trkpt>
      <trkpt lat="43.629" lon="7.03434">
        <ele>198.80000305176</ele>
        <time>2011-01-28T11:04:20.000Z</time>
      </trkpt>
      <trkpt lat="43.6291" lon="7.03414">
        <ele>197.39999389648</ele>
        <time>2011-01-28T11:04:25.000Z</time>
      </trkpt>
      <trkpt lat="43.62906" lon="7.03397">
        <ele>197.19999694824</ele>
        <time>2011-01-28T11:04:30.000Z</time>
      </trkpt>
      <trkpt lat="43.62906" lon="7.03394">
        <ele>197.19999694824</ele>
        <time>2011-01-28T11:04:31.000Z</time>
      </trkpt>
      <trkpt lat="43.62902" lon="7.03378">
        <ele>197</ele>
        <time>2011-01-28T11:04:37.000Z</time>
      </trkpt>
      <trkpt lat="43.629" lon="7.03357">
        <ele>196.60000610352</ele>
        <time>2011-01-28T11:04:43.000Z</time>
      </trkpt>
      <trkpt lat="43.629" lon="7.03324">
        <ele>195</ele>
        <time>2011-01-28T11:04:49.000Z</time>
      </trkpt>
      <trkpt lat="43.62898" lon="7.03301">
        <ele>193.19999694824</ele>
        <time>2011-01-28T11:04:53.000Z</time>
      </trkpt>
      <trkpt lat="43.62891" lon="7.03291">
        <ele>194</ele>
        <time>2011-01-28T11:04:58.000Z</time>
      </trkpt>
      <trkpt lat="43.62882" lon="7.03282">
        <ele>195.19999694824</ele>
        <time>2011-01-28T11:05:04.000Z</time>
      </trkpt>
      <trkpt lat="43.62875" lon="7.03268">
        <ele>195.60000610352</ele>
        <time>2011-01-28T11:05:09.000Z</time>
      </trkpt>
      <trkpt lat="43.62873" lon="7.03265">
        <ele>195.80000305176</ele>
        <time>2011-01-28T11:05:11.000Z</time>
      </trkpt>
      <trkpt lat="43.62862" lon="7.03251">
        <ele>197.80000305176</ele>
        <time>2011-01-28T11:05:16.000Z</time>
      </trkpt>
      <trkpt lat="43.62854" lon="7.03242">
        <ele>199.60000610352</ele>
        <time>2011-01-28T11:05:20.000Z</time>
      </trkpt>
      <trkpt lat="43.62855" lon="7.0322">
        <ele>199.39999389648</ele>
        <time>2011-01-28T11:05:26.000Z</time>
      </trkpt>
      <trkpt lat="43.62858" lon="7.03209">
        <ele>198.39999389648</ele>
        <time>2011-01-28T11:05:29.000Z</time>
      </trkpt>
      <trkpt lat="43.62861" lon="7.032">
        <ele>197.39999389648</ele>
        <time>2011-01-28T11:05:32.000Z</time>
      </trkpt>
      <trkpt lat="43.62874" lon="7.03175">
        <ele>192.60000610352</ele>
        <time>2011-01-28T11:05:39.000Z</time>
      </trkpt>
      <trkpt lat="43.62879" lon="7.03168">
        <ele>190.39999389648</ele>
        <time>2011-01-28T11:05:42.000Z</time>
      </trkpt>
      <trkpt lat="43.62885" lon="7.03143">
        <ele>188</ele>
        <time>2011-01-28T11:05:47.000Z</time>
      </trkpt>
      <trkpt lat="43.62887" lon="7.0313">
        <ele>187</ele>
        <time>2011-01-28T11:05:49.000Z</time>
      </trkpt>
      <trkpt lat="43.62887" lon="7.03105">
        <ele>186.39999389648</ele>
        <time>2011-01-28T11:05:53.000Z</time>
      </trkpt>
      <trkpt lat="43.62885" lon="7.03084">
        <ele>186.80000305176</ele>
        <time>2011-01-28T11:05:56.000Z</time>
      </trkpt>
      <trkpt lat="43.6288" lon="7.03069">
        <ele>188.39999389648</ele>
        <time>2011-01-28T11:05:58.000Z</time>
      </trkpt>
      <trkpt lat="43.62882" lon="7.03041">
        <ele>187</ele>
        <time>2011-01-28T11:06:02.000Z</time>
      </trkpt>
      <trkpt lat="43.62891" lon="7.03017">
        <ele>182.60000610352</ele>
        <time>2011-01-28T11:06:07.000Z</time>
      </trkpt>
      <trkpt lat="43.62894" lon="7.03006">
        <ele>181.39999389648</ele>
        <time>2011-01-28T11:06:09.000Z</time>
      </trkpt>
      <trkpt lat="43.629" lon="7.02979">
        <ele>178</ele>
        <time>2011-01-28T11:06:15.000Z</time>
      </trkpt>
      <trkpt lat="43.629" lon="7.02952">
        <ele>177.60000610352</ele>
        <time>2011-01-28T11:06:20.000Z</time>
      </trkpt>
      <trkpt lat="43.62903" lon="7.02926">
        <ele>175.60000610352</ele>
        <time>2011-01-28T11:06:25.000Z</time>
      </trkpt>
      <trkpt lat="43.629" lon="7.02903">
        <ele>175.60000610352</ele>
        <time>2011-01-28T11:06:29.000Z</time>
      </trkpt>
      <trkpt lat="43.62897" lon="7.0288">
        <ele>175</ele>
        <time>2011-01-28T11:06:33.000Z</time>
      </trkpt>
      <trkpt lat="43.62898" lon="7.02843">
        <ele>172.60000610352</ele>
        <time>2011-01-28T11:06:40.000Z</time>
      </trkpt>
      <trkpt lat="43.62897" lon="7.02831">
        <ele>172</ele>
        <time>2011-01-28T11:06:42.000Z</time>
      </trkpt>
      <trkpt lat="43.6289" lon="7.02806">
        <ele>172.60000610352</ele>
        <time>2011-01-28T11:06:47.000Z</time>
      </trkpt>
      <trkpt lat="43.62884" lon="7.02792">
        <ele>173</ele>
        <time>2011-01-28T11:06:51.000Z</time>
      </trkpt>
      <trkpt lat="43.62878" lon="7.02778">
        <ele>173</ele>
        <time>2011-01-28T11:06:55.000Z</time>
      </trkpt>
      <trkpt lat="43.62874" lon="7.02771">
        <ele>173</ele>
        <time>2011-01-28T11:06:57.000Z</time>
      </trkpt>
      <trkpt lat="43.62868" lon="7.02771">
        <ele>173.39999389648</ele>
        <time>2011-01-28T11:07:01.000Z</time>
      </trkpt>
      <trkpt lat="43.62868" lon="7.02771">
        <ele>173.39999389648</ele>
        <time>2011-01-28T11:07:02.000Z</time>
      </trkpt>
      <trkpt lat="43.62868" lon="7.02768">
        <ele>173.19999694824</ele>
        <time>2011-01-28T11:07:18.000Z</time>
      </trkpt>
      <trkpt lat="43.62866" lon="7.02766">
        <ele>173.19999694824</ele>
        <time>2011-01-28T11:07:45.000Z</time>
      </trkpt>
      <trkpt lat="43.62866" lon="7.02764">
        <ele>173.19999694824</ele>
        <time>2011-01-28T11:08:08.000Z</time>
      </trkpt>
      <trkpt lat="43.62866" lon="7.02764">
        <ele>173</ele>
        <time>2011-01-28T11:08:26.000Z</time>
      </trkpt>
      <trkpt lat="43.62865" lon="7.02762">
        <ele>173</ele>
        <time>2011-01-28T11:08:33.000Z</time>
      </trkpt>
      <trkpt lat="43.62864" lon="7.02764">
        <ele>173.19999694824</ele>
        <time>2011-01-28T11:08:47.000Z</time>
      </trkpt>
      <trkpt lat="43.62865" lon="7.02762">
        <ele>173</ele>
        <time>2011-01-28T11:09:07.000Z</time>
      </trkpt>
      <trkpt lat="43.62855" lon="7.02754">
        <ele>173</ele>
        <time>2011-01-28T11:09:13.000Z</time>
      </trkpt>
      <trkpt lat="43.62844" lon="7.0274">
        <ele>173</ele>
        <time>2011-01-28T11:09:20.000Z</time>
      </trkpt>
      <trkpt lat="43.62835" lon="7.02729">
        <ele>173.39999389648</ele>
        <time>2011-01-28T11:09:26.000Z</time>
      </trkpt>
      <trkpt lat="43.6282" lon="7.02721">
        <ele>177.80000305176</ele>
        <time>2011-01-28T11:09:33.000Z</time>
      </trkpt>
      <trkpt lat="43.62803" lon="7.02713">
        <ele>183</ele>
        <time>2011-01-28T11:09:41.000Z</time>
      </trkpt>
      <trkpt lat="43.62787" lon="7.027">
        <ele>186.60000610352</ele>
        <time>2011-01-28T11:09:49.000Z</time>
      </trkpt>
      <trkpt lat="43.62774" lon="7.02683">
        <ele>187.39999389648</ele>
        <time>2011-01-28T11:09:57.000Z</time>
      </trkpt>
      <trkpt lat="43.62767" lon="7.02662">
        <ele>185.80000305176</ele>
        <time>2011-01-28T11:10:05.000Z</time>
      </trkpt>
      <trkpt lat="43.62759" lon="7.02649">
        <ele>185.19999694824</ele>
        <time>2011-01-28T11:10:11.000Z</time>
      </trkpt>
      <trkpt lat="43.6275" lon="7.02632">
        <ele>183.60000610352</ele>
        <time>2011-01-28T11:10:18.000Z</time>
      </trkpt>
      <trkpt lat="43.6274" lon="7.02621">
        <ele>183.19999694824</ele>
        <time>2011-01-28T11:10:24.000Z</time>
      </trkpt>
      <trkpt lat="43.62725" lon="7.02615">
        <ele>184</ele>
        <time>2011-01-28T11:10:31.000Z</time>
      </trkpt>
      <trkpt lat="43.62709" lon="7.0261">
        <ele>185.39999389648</ele>
        <time>2011-01-28T11:10:39.000Z</time>
      </trkpt>
      <trkpt lat="43.62693" lon="7.0261">
        <ele>187.39999389648</ele>
        <time>2011-01-28T11:10:46.000Z</time>
      </trkpt>
      <trkpt lat="43.62679" lon="7.02613">
        <ele>190.19999694824</ele>
        <time>2011-01-28T11:10:53.000Z</time>
      </trkpt>
      <trkpt lat="43.62661" lon="7.02619">
        <ele>193.19999694824</ele>
        <time>2011-01-28T11:11:02.000Z</time>
      </trkpt>
      <trkpt lat="43.62644" lon="7.02627">
        <ele>194.80000305176</ele>
        <time>2011-01-28T11:11:11.000Z</time>
      </trkpt>
      <trkpt lat="43.62627" lon="7.02637">
        <ele>196.80000305176</ele>
        <time>2011-01-28T11:11:19.000Z</time>
      </trkpt>
      <trkpt lat="43.62609" lon="7.02647">
        <ele>198.60000610352</ele>
        <time>2011-01-28T11:11:28.000Z</time>
      </trkpt>
      <trkpt lat="43.62592" lon="7.02652">
        <ele>199.60000610352</ele>
        <time>2011-01-28T11:11:37.000Z</time>
      </trkpt>
      <trkpt lat="43.62575" lon="7.02657">
        <ele>201.19999694824</ele>
        <time>2011-01-28T11:11:46.000Z</time>
      </trkpt>
      <trkpt lat="43.62561" lon="7.02657">
        <ele>202.39999389648</ele>
        <time>2011-01-28T11:11:54.000Z</time>
      </trkpt>
      <trkpt lat="43.62548" lon="7.02653">
        <ele>202.80000305176</ele>
        <time>2011-01-28T11:12:01.000Z</time>
      </trkpt>
      <trkpt lat="43.62538" lon="7.02652">
        <ele>203.39999389648</ele>
        <time>2011-01-28T11:12:07.000Z</time>
      </trkpt>
      <trkpt lat="43.62523" lon="7.02653">
        <ele>205</ele>
        <time>2011-01-28T11:12:15.000Z</time>
      </trkpt>
      <trkpt lat="43.62511" lon="7.02655">
        <ele>206.60000610352</ele>
        <time>2011-01-28T11:12:22.000Z</time>
      </trkpt>
      <trkpt lat="43.62499" lon="7.02656">
        <ele>207.80000305176</ele>
        <time>2011-01-28T11:12:29.000Z</time>
      </trkpt>
      <trkpt lat="43.62484" lon="7.02658">
        <ele>210</ele>
        <time>2011-01-28T11:12:38.000Z</time>
      </trkpt>
      <trkpt lat="43.6247" lon="7.02657">
        <ele>211.39999389648</ele>
        <time>2011-01-28T11:12:45.000Z</time>
      </trkpt>
      <trkpt lat="43.62457" lon="7.0265">
        <ele>211.80000305176</ele>
        <time>2011-01-28T11:12:51.000Z</time>
      </trkpt>
      <trkpt lat="43.62443" lon="7.02637">
        <ele>211.60000610352</ele>
        <time>2011-01-28T11:12:58.000Z</time>
      </trkpt>
      <trkpt lat="43.62429" lon="7.02623">
        <ele>211.39999389648</ele>
        <time>2011-01-28T11:13:04.000Z</time>
      </trkpt>
      <trkpt lat="43.62418" lon="7.02614">
        <ele>211.80000305176</ele>
        <time>2011-01-28T11:13:09.000Z</time>
      </trkpt>
      <trkpt lat="43.62406" lon="7.02593">
        <ele>210.60000610352</ele>
        <time>2011-01-28T11:13:15.000Z</time>
      </trkpt>
      <trkpt lat="43.62395" lon="7.02567">
        <ele>210.60000610352</ele>
        <time>2011-01-28T11:13:22.000Z</time>
      </trkpt>
      <trkpt lat="43.62387" lon="7.02552">
        <ele>211.39999389648</ele>
        <time>2011-01-28T11:13:28.000Z</time>
      </trkpt>
      <trkpt lat="43.62379" lon="7.02535">
        <ele>212</ele>
        <time>2011-01-28T11:13:33.000Z</time>
      </trkpt>
      <trkpt lat="43.62372" lon="7.02514">
        <ele>212.19999694824</ele>
        <time>2011-01-28T11:13:40.000Z</time>
      </trkpt>
      <trkpt lat="43.62363" lon="7.02489">
        <ele>213.19999694824</ele>
        <time>2011-01-28T11:13:47.000Z</time>
      </trkpt>
      <trkpt lat="43.62361" lon="7.02486">
        <ele>213.39999389648</ele>
        <time>2011-01-28T11:13:48.000Z</time>
      </trkpt>
      <trkpt lat="43.62348" lon="7.02485">
        <ele>214.60000610352</ele>
        <time>2011-01-28T11:13:53.000Z</time>
      </trkpt>
      <trkpt lat="43.62342" lon="7.02501">
        <ele>215</ele>
        <time>2011-01-28T11:13:58.000Z</time>
      </trkpt>
      <trkpt lat="43.62344" lon="7.02527">
        <ele>216</ele>
        <time>2011-01-28T11:14:06.000Z</time>
      </trkpt>
      <trkpt lat="43.62343" lon="7.02546">
        <ele>216.80000305176</ele>
        <time>2011-01-28T11:14:13.000Z</time>
      </trkpt>
      <trkpt lat="43.62341" lon="7.02564">
        <ele>218</ele>
        <time>2011-01-28T11:14:19.000Z</time>
      </trkpt>
      <trkpt lat="43.62343" lon="7.02587">
        <ele>218.80000305176</ele>
        <time>2011-01-28T11:14:26.000Z</time>
      </trkpt>
      <trkpt lat="43.62346" lon="7.02609">
        <ele>220.19999694824</ele>
        <time>2011-01-28T11:14:34.000Z</time>
      </trkpt>
      <trkpt lat="43.62349" lon="7.02631">
        <ele>221.60000610352</ele>
        <time>2011-01-28T11:14:42.000Z</time>
      </trkpt>
      <trkpt lat="43.62352" lon="7.02651">
        <ele>223</ele>
        <time>2011-01-28T11:14:49.000Z</time>
      </trkpt>
      <trkpt lat="43.62358" lon="7.02669">
        <ele>224</ele>
        <time>2011-01-28T11:14:57.000Z</time>
      </trkpt>
      <trkpt lat="43.62366" lon="7.0268">
        <ele>224.60000610352</ele>
        <time>2011-01-28T11:15:03.000Z</time>
      </trkpt>
      <trkpt lat="43.62371" lon="7.02689">
        <ele>225</ele>
        <time>2011-01-28T11:15:09.000Z</time>
      </trkpt>
      <trkpt lat="43.62371" lon="7.0269">
        <ele>225.19999694824</ele>
        <time>2011-01-28T11:15:14.000Z</time>
      </trkpt>
      <trkpt lat="43.62371" lon="7.02692">
        <ele>225.39999389648</ele>
        <time>2011-01-28T11:15:18.000Z</time>
      </trkpt>
      <trkpt lat="43.62389" lon="7.02693">
        <ele>224.19999694824</ele>
        <time>2011-01-28T11:15:23.000Z</time>
      </trkpt>
      <trkpt lat="43.62412" lon="7.02693">
        <ele>222.60000610352</ele>
        <time>2011-01-28T11:15:28.000Z</time>
      </trkpt>
      <trkpt lat="43.62429" lon="7.02699">
        <ele>222</ele>
        <time>2011-01-28T11:15:33.000Z</time>
      </trkpt>
      <trkpt lat="43.62434" lon="7.027">
        <ele>221.80000305176</ele>
        <time>2011-01-28T11:15:34.000Z</time>
      </trkpt>
      <trkpt lat="43.62444" lon="7.02703">
        <ele>221.39999389648</ele>
        <time>2011-01-28T11:15:36.000Z</time>
      </trkpt>
      <trkpt lat="43.62455" lon="7.02712">
        <ele>222</ele>
        <time>2011-01-28T11:15:40.000Z</time>
      </trkpt>
      <trkpt lat="43.6246" lon="7.02713">
        <ele>221.60000610352</ele>
        <time>2011-01-28T11:15:42.000Z</time>
      </trkpt>
      <trkpt lat="43.62484" lon="7.0271">
        <ele>219.39999389648</ele>
        <time>2011-01-28T11:15:47.000Z</time>
      </trkpt>
      <trkpt lat="43.625" lon="7.02716">
        <ele>219.39999389648</ele>
        <time>2011-01-28T11:15:51.000Z</time>
      </trkpt>
      <trkpt lat="43.62516" lon="7.02717">
        <ele>218.60000610352</ele>
        <time>2011-01-28T11:15:55.000Z</time>
      </trkpt>
      <trkpt lat="43.62546" lon="7.02722">
        <ele>217.80000305176</ele>
        <time>2011-01-28T11:16:03.000Z</time>
      </trkpt>
      <trkpt lat="43.62557" lon="7.02728">
        <ele>218.39999389648</ele>
        <time>2011-01-28T11:16:08.000Z</time>
      </trkpt>
      <trkpt lat="43.62566" lon="7.02732">
        <ele>218.60000610352</ele>
        <time>2011-01-28T11:16:12.000Z</time>
      </trkpt>
      <trkpt lat="43.62574" lon="7.02736">
        <ele>219.19999694824</ele>
        <time>2011-01-28T11:16:18.000Z</time>
      </trkpt>
      <trkpt lat="43.62585" lon="7.02737">
        <ele>219</ele>
        <time>2011-01-28T11:16:24.000Z</time>
      </trkpt>
      <trkpt lat="43.6259" lon="7.02738">
        <ele>219</ele>
        <time>2011-01-28T11:16:26.000Z</time>
      </trkpt>
      <trkpt lat="43.62613" lon="7.02744">
        <ele>220.19999694824</ele>
        <time>2011-01-28T11:16:33.000Z</time>
      </trkpt>
      <trkpt lat="43.62628" lon="7.02747">
        <ele>220.80000305176</ele>
        <time>2011-01-28T11:16:38.000Z</time>
      </trkpt>
      <trkpt lat="43.62639" lon="7.02751">
        <ele>221.39999389648</ele>
        <time>2011-01-28T11:16:44.000Z</time>
      </trkpt>
      <trkpt lat="43.62649" lon="7.02734">
        <ele>218.19999694824</ele>
        <time>2011-01-28T11:16:50.000Z</time>
      </trkpt>
      <trkpt lat="43.62655" lon="7.02731">
        <ele>217.39999389648</ele>
        <time>2011-01-28T11:16:53.000Z</time>
      </trkpt>
      <trkpt lat="43.62669" lon="7.02727">
        <ele>216.39999389648</ele>
        <time>2011-01-28T11:17:00.000Z</time>
      </trkpt>
      <trkpt lat="43.62682" lon="7.02726">
        <ele>214.19999694824</ele>
        <time>2011-01-28T11:17:06.000Z</time>
      </trkpt>
      <trkpt lat="43.62692" lon="7.02729">
        <ele>213.19999694824</ele>
        <time>2011-01-28T11:17:10.000Z</time>
      </trkpt>
      <trkpt lat="43.62697" lon="7.02734">
        <ele>213.39999389648</ele>
        <time>2011-01-28T11:17:13.000Z</time>
      </trkpt>
      <trkpt lat="43.62709" lon="7.02742">
        <ele>213.19999694824</ele>
        <time>2011-01-28T11:17:18.000Z</time>
      </trkpt>
      <trkpt lat="43.62731" lon="7.0276">
        <ele>212.39999389648</ele>
        <time>2011-01-28T11:17:25.000Z</time>
      </trkpt>
      <trkpt lat="43.62746" lon="7.02775">
        <ele>211.60000610352</ele>
        <time>2011-01-28T11:17:30.000Z</time>
      </trkpt>
      <trkpt lat="43.6275" lon="7.02779">
        <ele>211.19999694824</ele>
        <time>2011-01-28T11:17:32.000Z</time>
      </trkpt>
      <trkpt lat="43.6275" lon="7.02783">
        <ele>211.80000305176</ele>
        <time>2011-01-28T11:17:37.000Z</time>
      </trkpt>
      <trkpt lat="43.6275" lon="7.02785">
        <ele>211.60000610352</ele>
        <time>2011-01-28T11:17:40.000Z</time>
      </trkpt>
      <trkpt lat="43.62757" lon="7.02796">
        <ele>210.19999694824</ele>
        <time>2011-01-28T11:17:45.000Z</time>
      </trkpt>
      <trkpt lat="43.62757" lon="7.02794">
        <ele>210</ele>
        <time>2011-01-28T11:17:52.000Z</time>
      </trkpt>
      <trkpt lat="43.62759" lon="7.02796">
        <ele>209.39999389648</ele>
        <time>2011-01-28T11:18:05.000Z</time>
      </trkpt>
      <trkpt lat="43.62756" lon="7.02798">
        <ele>210.39999389648</ele>
        <time>2011-01-28T11:18:26.000Z</time>
      </trkpt>
      <trkpt lat="43.62756" lon="7.02797">
        <ele>210.60000610352</ele>
        <time>2011-01-28T11:18:38.000Z</time>
      </trkpt>
      <trkpt lat="43.62759" lon="7.02794">
        <ele>209.19999694824</ele>
        <time>2011-01-28T11:19:10.000Z</time>
      </trkpt>
      <trkpt lat="43.62759" lon="7.02795">
        <ele>209.39999389648</ele>
        <time>2011-01-28T11:19:44.000Z</time>
      </trkpt>
      <trkpt lat="43.62759" lon="7.02795">
        <ele>209</ele>
        <time>2011-01-28T11:20:08.000Z</time>
      </trkpt>
      <trkpt lat="43.62759" lon="7.02795">
        <ele>209.19999694824</ele>
        <time>2011-01-28T11:20:15.000Z</time>
      </trkpt>
      <trkpt lat="43.62759" lon="7.02793">
        <ele>209</ele>
        <time>2011-01-28T11:20:42.000Z</time>
      </trkpt>
      <trkpt lat="43.6276" lon="7.02793">
        <ele>208.80000305176</ele>
        <time>2011-01-28T11:20:56.000Z</time>
      </trkpt>
      <trkpt lat="43.6276" lon="7.02793">
        <ele>208.80000305176</ele>
        <time>2011-01-28T11:20:58.000Z</time>
      </trkpt>
      <trkpt lat="43.6276" lon="7.02795">
        <ele>209</ele>
        <time>2011-01-28T11:21:11.000Z</time>
      </trkpt>
      <trkpt lat="43.6276" lon="7.02798">
        <ele>209</ele>
        <time>2011-01-28T11:21:19.000Z</time>
      </trkpt>
      <trkpt lat="43.62765" lon="7.02811">
        <ele>208.19999694824</ele>
        <time>2011-01-28T11:21:24.000Z</time>
      </trkpt>
      <trkpt lat="43.62765" lon="7.02823">
        <ele>209.60000610352</ele>
        <time>2011-01-28T11:21:27.000Z</time>
      </trkpt>
      <trkpt lat="43.62762" lon="7.02828">
        <ele>211</ele>
        <time>2011-01-28T11:21:32.000Z</time>
      </trkpt>
      <trkpt lat="43.62762" lon="7.02829">
        <ele>211</ele>
        <time>2011-01-28T11:21:33.000Z</time>
      </trkpt>
      <trkpt lat="43.62769" lon="7.02848">
        <ele>210.19999694824</ele>
        <time>2011-01-28T11:21:39.000Z</time>
      </trkpt>
      <trkpt lat="43.62774" lon="7.02852">
        <ele>208.80000305176</ele>
        <time>2011-01-28T11:21:43.000Z</time>
      </trkpt>
      <trkpt lat="43.62775" lon="7.02849">
        <ele>208.19999694824</ele>
        <time>2011-01-28T11:21:51.000Z</time>
      </trkpt>
      <trkpt lat="43.62776" lon="7.02853">
        <ele>208.19999694824</ele>
        <time>2011-01-28T11:21:56.000Z</time>
      </trkpt>
      <trkpt lat="43.62771" lon="7.02851">
        <ele>210</ele>
        <time>2011-01-28T11:22:03.000Z</time>
      </trkpt>
      <trkpt lat="43.62771" lon="7.02852">
        <ele>210</ele>
        <time>2011-01-28T11:22:04.000Z</time>
      </trkpt>
      <trkpt lat="43.62775" lon="7.02852">
        <ele>208.39999389648</ele>
        <time>2011-01-28T11:22:09.000Z</time>
      </trkpt>
      <trkpt lat="43.62776" lon="7.02851">
        <ele>208</ele>
        <time>2011-01-28T11:22:10.000Z</time>
      </trkpt>
      <trkpt lat="43.62785" lon="7.02854">
        <ele>205.39999389648</ele>
        <time>2011-01-28T11:22:16.000Z</time>
      </trkpt>
      <trkpt lat="43.62785" lon="7.02854">
        <ele>205.19999694824</ele>
        <time>2011-01-28T11:22:18.000Z</time>
      </trkpt>
      <trkpt lat="43.62794" lon="7.02861">
        <ele>203</ele>
        <time>2011-01-28T11:22:24.000Z</time>
      </trkpt>
      <trkpt lat="43.62807" lon="7.02866">
        <ele>199.60000610352</ele>
        <time>2011-01-28T11:22:29.000Z</time>
      </trkpt>
      <trkpt lat="43.62809" lon="7.02869">
        <ele>199.19999694824</ele>
        <time>2011-01-28T11:22:30.000Z</time>
      </trkpt>
      <trkpt lat="43.6282" lon="7.0288">
        <ele>197.19999694824</ele>
        <time>2011-01-28T11:22:35.000Z</time>
      </trkpt>
      <trkpt lat="43.62826" lon="7.02879">
        <ele>195.19999694824</ele>
        <time>2011-01-28T11:22:40.000Z</time>
      </trkpt>
      <trkpt lat="43.62841" lon="7.02884">
        <ele>191.39999389648</ele>
        <time>2011-01-28T11:22:44.000Z</time>
      </trkpt>
      <trkpt lat="43.62852" lon="7.02874">
        <ele>187</ele>
        <time>2011-01-28T11:22:48.000Z</time>
      </trkpt>
      <trkpt lat="43.62855" lon="7.02861">
        <ele>184.80000305176</ele>
        <time>2011-01-28T11:22:51.000Z</time>
      </trkpt>
      <trkpt lat="43.62852" lon="7.02857">
        <ele>184.80000305176</ele>
        <time>2011-01-28T11:22:52.000Z</time>
      </trkpt>
      <trkpt lat="43.62852" lon="7.02828">
        <ele>181.39999389648</ele>
        <time>2011-01-28T11:22:57.000Z</time>
      </trkpt>
      <trkpt lat="43.62856" lon="7.02809">
        <ele>178.60000610352</ele>
        <time>2011-01-28T11:23:01.000Z</time>
      </trkpt>
      <trkpt lat="43.62855" lon="7.02803">
        <ele>178</ele>
        <time>2011-01-28T11:23:04.000Z</time>
      </trkpt>
      <trkpt lat="43.62855" lon="7.02801">
        <ele>177.80000305176</ele>
        <time>2011-01-28T11:23:05.000Z</time>
      </trkpt>
      <trkpt lat="43.62861" lon="7.0279">
        <ele>175.80000305176</ele>
        <time>2011-01-28T11:23:10.000Z</time>
      </trkpt>
      <trkpt lat="43.62865" lon="7.02783">
        <ele>174.80000305176</ele>
        <time>2011-01-28T11:23:12.000Z</time>
      </trkpt>
      <trkpt lat="43.62865" lon="7.02769">
        <ele>173.60000610352</ele>
        <time>2011-01-28T11:23:16.000Z</time>
      </trkpt>
      <trkpt lat="43.62863" lon="7.02766">
        <ele>173.39999389648</ele>
        <time>2011-01-28T11:23:18.000Z</time>
      </trkpt>
      <trkpt lat="43.62862" lon="7.02765">
        <ele>173.60000610352</ele>
        <time>2011-01-28T11:23:22.000Z</time>
      </trkpt>
      <trkpt lat="43.62863" lon="7.02765">
        <ele>173.39999389648</ele>
        <time>2011-01-28T11:23:39.000Z</time>
      </trkpt>
      <trkpt lat="43.62865" lon="7.02767">
        <ele>173.39999389648</ele>
        <time>2011-01-28T11:23:51.000Z</time>
      </trkpt>
      <trkpt lat="43.62863" lon="7.02768">
        <ele>173.80000305176</ele>
        <time>2011-01-28T11:24:08.000Z</time>
      </trkpt>
      <trkpt lat="43.62863" lon="7.02766">
        <ele>173.60000610352</ele>
        <time>2011-01-28T11:24:38.000Z</time>
      </trkpt>
      <trkpt lat="43.62863" lon="7.02766">
        <ele>173.60000610352</ele>
        <time>2011-01-28T11:24:56.000Z</time>
      </trkpt>
      <trkpt lat="43.6286" lon="7.02769">
        <ele>174.19999694824</ele>
        <time>2011-01-28T11:25:08.000Z</time>
      </trkpt>
      <trkpt lat="43.6286" lon="7.0277">
        <ele>174.19999694824</ele>
        <time>2011-01-28T11:25:11.000Z</time>
      </trkpt>
      <trkpt lat="43.62866" lon="7.02772">
        <ele>173.80000305176</ele>
        <time>2011-01-28T11:25:17.000Z</time>
      </trkpt>
      <trkpt lat="43.62868" lon="7.02771">
        <ele>173.60000610352</ele>
        <time>2011-01-28T11:25:19.000Z</time>
      </trkpt>
      <trkpt lat="43.62883" lon="7.02773">
        <ele>172</ele>
        <time>2011-01-28T11:25:26.000Z</time>
      </trkpt>
      <trkpt lat="43.62899" lon="7.02784">
        <ele>170.60000610352</ele>
        <time>2011-01-28T11:25:32.000Z</time>
      </trkpt>
      <trkpt lat="43.62906" lon="7.0279">
        <ele>169.80000305176</ele>
        <time>2011-01-28T11:25:36.000Z</time>
      </trkpt>
      <trkpt lat="43.6292" lon="7.0279">
        <ele>168.39999389648</ele>
        <time>2011-01-28T11:25:41.000Z</time>
      </trkpt>
      <trkpt lat="43.62928" lon="7.02788">
        <ele>168.39999389648</ele>
        <time>2011-01-28T11:25:43.000Z</time>
      </trkpt>
      <trkpt lat="43.62948" lon="7.02783">
        <ele>168.19999694824</ele>
        <time>2011-01-28T11:25:50.000Z</time>
      </trkpt>
      <trkpt lat="43.62964" lon="7.02775">
        <ele>168.19999694824</ele>
        <time>2011-01-28T11:25:57.000Z</time>
      </trkpt>
      <trkpt lat="43.62975" lon="7.02758">
        <ele>168.60000610352</ele>
        <time>2011-01-28T11:26:04.000Z</time>
      </trkpt>
      <trkpt lat="43.62986" lon="7.02741">
        <ele>169.60000610352</ele>
        <time>2011-01-28T11:26:11.000Z</time>
      </trkpt>
      <trkpt lat="43.62995" lon="7.02728">
        <ele>171</ele>
        <time>2011-01-28T11:26:17.000Z</time>
      </trkpt>
      <trkpt lat="43.63005" lon="7.02708">
        <ele>173</ele>
        <time>2011-01-28T11:26:25.000Z</time>
      </trkpt>
      <trkpt lat="43.63021" lon="7.02677">
        <ele>175.19999694824</ele>
        <time>2011-01-28T11:26:37.000Z</time>
      </trkpt>
      <trkpt lat="43.63029" lon="7.02654">
        <ele>176.80000305176</ele>
        <time>2011-01-28T11:26:45.000Z</time>
      </trkpt>
      <trkpt lat="43.63037" lon="7.02625">
        <ele>179.19999694824</ele>
        <time>2011-01-28T11:26:54.000Z</time>
      </trkpt>
      <trkpt lat="43.63045" lon="7.02605">
        <ele>180</ele>
        <time>2011-01-28T11:27:01.000Z</time>
      </trkpt>
      <trkpt lat="43.63057" lon="7.02593">
        <ele>179</ele>
        <time>2011-01-28T11:27:07.000Z</time>
      </trkpt>
      <trkpt lat="43.63068" lon="7.02578">
        <ele>178.60000610352</ele>
        <time>2011-01-28T11:27:11.000Z</time>
      </trkpt>
      <trkpt lat="43.63085" lon="7.02552">
        <ele>179.80000305176</ele>
        <time>2011-01-28T11:27:16.000Z</time>
      </trkpt>
      <trkpt lat="43.63102" lon="7.02543">
        <ele>180.60000610352</ele>
        <time>2011-01-28T11:27:20.000Z</time>
      </trkpt>
      <trkpt lat="43.63114" lon="7.02545">
        <ele>180</ele>
        <time>2011-01-28T11:27:23.000Z</time>
      </trkpt>
      <trkpt lat="43.63137" lon="7.02545">
        <ele>179.39999389648</ele>
        <time>2011-01-28T11:27:31.000Z</time>
      </trkpt>
      <trkpt lat="43.6315" lon="7.02548">
        <ele>179</ele>
        <time>2011-01-28T11:27:37.000Z</time>
      </trkpt>
      <trkpt lat="43.63152" lon="7.02548">
        <ele>179</ele>
        <time>2011-01-28T11:27:38.000Z</time>
      </trkpt>
      <trkpt lat="43.63161" lon="7.02562">
        <ele>178</ele>
        <time>2011-01-28T11:27:43.000Z</time>
      </trkpt>
      <trkpt lat="43.63168" lon="7.02588">
        <ele>177.80000305176</ele>
        <time>2011-01-28T11:27:50.000Z</time>
      </trkpt>
      <trkpt lat="43.63165" lon="7.02609">
        <ele>180.19999694824</ele>
        <time>2011-01-28T11:27:55.000Z</time>
      </trkpt>
      <trkpt lat="43.63154" lon="7.02632">
        <ele>182</ele>
        <time>2011-01-28T11:28:02.000Z</time>
      </trkpt>
      <trkpt lat="43.63148" lon="7.02646">
        <ele>182.60000610352</ele>
        <time>2011-01-28T11:28:07.000Z</time>
      </trkpt>
      <trkpt lat="43.63142" lon="7.02669">
        <ele>183.80000305176</ele>
        <time>2011-01-28T11:28:14.000Z</time>
      </trkpt>
      <trkpt lat="43.63134" lon="7.02701">
        <ele>186.80000305176</ele>
        <time>2011-01-28T11:28:23.000Z</time>
      </trkpt>
      <trkpt lat="43.63127" lon="7.02724">
        <ele>187.80000305176</ele>
        <time>2011-01-28T11:28:30.000Z</time>
      </trkpt>
      <trkpt lat="43.6312" lon="7.02749">
        <ele>188.80000305176</ele>
        <time>2011-01-28T11:28:37.000Z</time>
      </trkpt>
      <trkpt lat="43.63113" lon="7.02776">
        <ele>189.80000305176</ele>
        <time>2011-01-28T11:28:45.000Z</time>
      </trkpt>
      <trkpt lat="43.63108" lon="7.02797">
        <ele>190.80000305176</ele>
        <time>2011-01-28T11:28:52.000Z</time>
      </trkpt>
      <trkpt lat="43.63097" lon="7.02823">
        <ele>190.19999694824</ele>
        <time>2011-01-28T11:29:00.000Z</time>
      </trkpt>
      <trkpt lat="43.63091" lon="7.02852">
        <ele>190</ele>
        <time>2011-01-28T11:29:09.000Z</time>
      </trkpt>
      <trkpt lat="43.63087" lon="7.02868">
        <ele>189</ele>
        <time>2011-01-28T11:29:15.000Z</time>
      </trkpt>
      <trkpt lat="43.63086" lon="7.02887">
        <ele>189.19999694824</ele>
        <time>2011-01-28T11:29:21.000Z</time>
      </trkpt>
      <trkpt lat="43.63087" lon="7.02905">
        <ele>190</ele>
        <time>2011-01-28T11:29:27.000Z</time>
      </trkpt>
      <trkpt lat="43.63092" lon="7.02934">
        <ele>191.60000610352</ele>
        <time>2011-01-28T11:29:36.000Z</time>
      </trkpt>
      <trkpt lat="43.631" lon="7.02956">
        <ele>194</ele>
        <time>2011-01-28T11:29:43.000Z</time>
      </trkpt>
      <trkpt lat="43.63108" lon="7.02982">
        <ele>196</ele>
        <time>2011-01-28T11:29:51.000Z</time>
      </trkpt>
      <trkpt lat="43.63108" lon="7.03002">
        <ele>195.80000305176</ele>
        <time>2011-01-28T11:29:58.000Z</time>
      </trkpt>
      <trkpt lat="43.6311" lon="7.0302">
        <ele>195.80000305176</ele>
        <time>2011-01-28T11:30:04.000Z</time>
      </trkpt>
      <trkpt lat="43.63117" lon="7.03045">
        <ele>197.19999694824</ele>
        <time>2011-01-28T11:30:11.000Z</time>
      </trkpt>
      <trkpt lat="43.63123" lon="7.03072">
        <ele>198.19999694824</ele>
        <time>2011-01-28T11:30:19.000Z</time>
      </trkpt>
      <trkpt lat="43.63128" lon="7.03101">
        <ele>198</ele>
        <time>2011-01-28T11:30:27.000Z</time>
      </trkpt>
      <trkpt lat="43.63127" lon="7.03133">
        <ele>195.39999389648</ele>
        <time>2011-01-28T11:30:34.000Z</time>
      </trkpt>
      <trkpt lat="43.63134" lon="7.03161">
        <ele>195.19999694824</ele>
        <time>2011-01-28T11:30:40.000Z</time>
      </trkpt>
      <trkpt lat="43.63144" lon="7.0319">
        <ele>195.80000305176</ele>
        <time>2011-01-28T11:30:47.000Z</time>
      </trkpt>
      <trkpt lat="43.63155" lon="7.03214">
        <ele>196.60000610352</ele>
        <time>2011-01-28T11:30:53.000Z</time>
      </trkpt>
      <trkpt lat="43.63163" lon="7.03242">
        <ele>196.60000610352</ele>
        <time>2011-01-28T11:30:59.000Z</time>
      </trkpt>
      <trkpt lat="43.63173" lon="7.03284">
        <ele>195.80000305176</ele>
        <time>2011-01-28T11:31:08.000Z</time>
      </trkpt>
      <trkpt lat="43.63181" lon="7.03322">
        <ele>194.80000305176</ele>
        <time>2011-01-28T11:31:17.000Z</time>
      </trkpt>
      <trkpt lat="43.63187" lon="7.03345">
        <ele>194.19999694824</ele>
        <time>2011-01-28T11:31:24.000Z</time>
      </trkpt>
      <trkpt lat="43.63191" lon="7.03356">
        <ele>194</ele>
        <time>2011-01-28T11:31:31.000Z</time>
      </trkpt>
      <trkpt lat="43.63192" lon="7.03359">
        <ele>194</ele>
        <time>2011-01-28T11:31:37.000Z</time>
      </trkpt>
      <trkpt lat="43.63195" lon="7.03358">
        <ele>194.60000610352</ele>
        <time>2011-01-28T11:31:43.000Z</time>
      </trkpt>
      <trkpt lat="43.63196" lon="7.03358">
        <ele>194.80000305176</ele>
        <time>2011-01-28T11:31:55.000Z</time>
      </trkpt>
      <trkpt lat="43.63199" lon="7.03358">
        <ele>195.60000610352</ele>
        <time>2011-01-28T11:32:14.000Z</time>
      </trkpt>
      <trkpt lat="43.63201" lon="7.03359">
        <ele>195.60000610352</ele>
        <time>2011-01-28T11:32:25.000Z</time>
      </trkpt>
      <trkpt lat="43.63202" lon="7.03357">
        <ele>196</ele>
        <time>2011-01-28T11:32:31.000Z</time>
      </trkpt>
      <trkpt lat="43.63204" lon="7.03344">
        <ele>197.80000305176</ele>
        <time>2011-01-28T11:32:36.000Z</time>
      </trkpt>
      <trkpt lat="43.63202" lon="7.03313">
        <ele>200.19999694824</ele>
        <time>2011-01-28T11:32:45.000Z</time>
      </trkpt>
      <trkpt lat="43.63202" lon="7.03289">
        <ele>202.19999694824</ele>
        <time>2011-01-28T11:32:52.000Z</time>
      </trkpt>
      <trkpt lat="43.63203" lon="7.03274">
        <ele>203.60000610352</ele>
        <time>2011-01-28T11:32:57.000Z</time>
      </trkpt>
      <trkpt lat="43.63211" lon="7.03272">
        <ele>205.60000610352</ele>
        <time>2011-01-28T11:33:02.000Z</time>
      </trkpt>
      <trkpt lat="43.63214" lon="7.03284">
        <ele>205.19999694824</ele>
        <time>2011-01-28T11:33:06.000Z</time>
      </trkpt>
      <trkpt lat="43.63221" lon="7.033">
        <ele>205.39999389648</ele>
        <time>2011-01-28T11:33:12.000Z</time>
      </trkpt>
      <trkpt lat="43.63234" lon="7.03312">
        <ele>207.39999389648</ele>
        <time>2011-01-28T11:33:19.000Z</time>
      </trkpt>
      <trkpt lat="43.63246" lon="7.03309">
        <ele>210.39999389648</ele>
        <time>2011-01-28T11:33:25.000Z</time>
      </trkpt>
      <trkpt lat="43.63262" lon="7.03297">
        <ele>212.60000610352</ele>
        <time>2011-01-28T11:33:33.000Z</time>
      </trkpt>
      <trkpt lat="43.63273" lon="7.03286">
        <ele>214</ele>
        <time>2011-01-28T11:33:39.000Z</time>
      </trkpt>
      <trkpt lat="43.63283" lon="7.03275">
        <ele>215.39999389648</ele>
        <time>2011-01-28T11:33:45.000Z</time>
      </trkpt>
      <trkpt lat="43.63293" lon="7.03263">
        <ele>217</ele>
        <time>2011-01-28T11:33:52.000Z</time>
      </trkpt>
      <trkpt lat="43.63302" lon="7.03252">
        <ele>218.60000610352</ele>
        <time>2011-01-28T11:33:58.000Z</time>
      </trkpt>
      <trkpt lat="43.63319" lon="7.0324">
        <ele>220.19999694824</ele>
        <time>2011-01-28T11:34:05.000Z</time>
      </trkpt>
      <trkpt lat="43.63331" lon="7.03232">
        <ele>221.60000610352</ele>
        <time>2011-01-28T11:34:12.000Z</time>
      </trkpt>
      <trkpt lat="43.63344" lon="7.0322">
        <ele>221.60000610352</ele>
        <time>2011-01-28T11:34:19.000Z</time>
      </trkpt>
      <trkpt lat="43.63359" lon="7.03204">
        <ele>221.39999389648</ele>
        <time>2011-01-28T11:34:27.000Z</time>
      </trkpt>
      <trkpt lat="43.63378" lon="7.03183">
        <ele>221.39999389648</ele>
        <time>2011-01-28T11:34:37.000Z</time>
      </trkpt>
      <trkpt lat="43.63394" lon="7.03162">
        <ele>221.60000610352</ele>
        <time>2011-01-28T11:34:45.000Z</time>
      </trkpt>
      <trkpt lat="43.63405" lon="7.0314">
        <ele>221.80000305176</ele>
        <time>2011-01-28T11:34:52.000Z</time>
      </trkpt>
      <trkpt lat="43.63412" lon="7.03121">
        <ele>222.19999694824</ele>
        <time>2011-01-28T11:34:58.000Z</time>
      </trkpt>
      <trkpt lat="43.63418" lon="7.03092">
        <ele>223</ele>
        <time>2011-01-28T11:35:06.000Z</time>
      </trkpt>
      <trkpt lat="43.63421" lon="7.03076">
        <ele>223.19999694824</ele>
        <time>2011-01-28T11:35:12.000Z</time>
      </trkpt>
      <trkpt lat="43.63421" lon="7.03073">
        <ele>223.19999694824</ele>
        <time>2011-01-28T11:35:13.000Z</time>
      </trkpt>
      <trkpt lat="43.63412" lon="7.03064">
        <ele>225</ele>
        <time>2011-01-28T11:35:18.000Z</time>
      </trkpt>
      <trkpt lat="43.6341" lon="7.03066">
        <ele>225.19999694824</ele>
        <time>2011-01-28T11:35:19.000Z</time>
      </trkpt>
      <trkpt lat="43.63388" lon="7.03077">
        <ele>227.19999694824</ele>
        <time>2011-01-28T11:35:28.000Z</time>
      </trkpt>
      <trkpt lat="43.63373" lon="7.03074">
        <ele>229</ele>
        <time>2011-01-28T11:35:34.000Z</time>
      </trkpt>
      <trkpt lat="43.63358" lon="7.03066">
        <ele>231</ele>
        <time>2011-01-28T11:35:40.000Z</time>
      </trkpt>
      <trkpt lat="43.63345" lon="7.0306">
        <ele>232.80000305176</ele>
        <time>2011-01-28T11:35:46.000Z</time>
      </trkpt>
      <trkpt lat="43.63335" lon="7.03052">
        <ele>234.19999694824</ele>
        <time>2011-01-28T11:35:52.000Z</time>
      </trkpt>
      <trkpt lat="43.63328" lon="7.03048">
        <ele>234.39999389648</ele>
        <time>2011-01-28T11:35:56.000Z</time>
      </trkpt>
      <trkpt lat="43.63325" lon="7.03037">
        <ele>235</ele>
        <time>2011-01-28T11:36:01.000Z</time>
      </trkpt>
      <trkpt lat="43.63323" lon="7.03023">
        <ele>235.60000610352</ele>
        <time>2011-01-28T11:36:06.000Z</time>
      </trkpt>
      <trkpt lat="43.63325" lon="7.03003">
        <ele>236.60000610352</ele>
        <time>2011-01-28T11:36:12.000Z</time>
      </trkpt>
      <trkpt lat="43.63322" lon="7.02986">
        <ele>237</ele>
        <time>2011-01-28T11:36:17.000Z</time>
      </trkpt>
      <trkpt lat="43.63326" lon="7.0297">
        <ele>237.80000305176</ele>
        <time>2011-01-28T11:36:22.000Z</time>
      </trkpt>
      <trkpt lat="43.63327" lon="7.02958">
        <ele>238.19999694824</ele>
        <time>2011-01-28T11:36:25.000Z</time>
      </trkpt>
      <trkpt lat="43.63327" lon="7.02944">
        <ele>238.60000610352</ele>
        <time>2011-01-28T11:36:29.000Z</time>
      </trkpt>
      <trkpt lat="43.63329" lon="7.0293">
        <ele>239.19999694824</ele>
        <time>2011-01-28T11:36:33.000Z</time>
      </trkpt>
      <trkpt lat="43.6333" lon="7.02911">
        <ele>239.39999389648</ele>
        <time>2011-01-28T11:36:38.000Z</time>
      </trkpt>
      <trkpt lat="43.63335" lon="7.02888">
        <ele>237.39999389648</ele>
        <time>2011-01-28T11:36:44.000Z</time>
      </trkpt>
      <trkpt lat="43.63339" lon="7.0287">
        <ele>235.60000610352</ele>
        <time>2011-01-28T11:36:49.000Z</time>
      </trkpt>
      <trkpt lat="43.63344" lon="7.02854">
        <ele>233.80000305176</ele>
        <time>2011-01-28T11:36:53.000Z</time>
      </trkpt>
      <trkpt lat="43.63349" lon="7.02834">
        <ele>231.39999389648</ele>
        <time>2011-01-28T11:36:57.000Z</time>
      </trkpt>
      <trkpt lat="43.6336" lon="7.02808">
        <ele>227.19999694824</ele>
        <time>2011-01-28T11:37:01.000Z</time>
      </trkpt>
      <trkpt lat="43.63367" lon="7.02782">
        <ele>224</ele>
        <time>2011-01-28T11:37:05.000Z</time>
      </trkpt>
      <trkpt lat="43.6338" lon="7.02756">
        <ele>220.60000610352</ele>
        <time>2011-01-28T11:37:09.000Z</time>
      </trkpt>
      <trkpt lat="43.63393" lon="7.02748">
        <ele>219.19999694824</ele>
        <time>2011-01-28T11:37:13.000Z</time>
      </trkpt>
      <trkpt lat="43.63393" lon="7.02747">
        <ele>219.19999694824</ele>
        <time>2011-01-28T11:37:14.000Z</time>
      </trkpt>
      <trkpt lat="43.63394" lon="7.02746">
        <ele>219</ele>
        <time>2011-01-28T11:37:20.000Z</time>
      </trkpt>
      <trkpt lat="43.63393" lon="7.02746">
        <ele>219.19999694824</ele>
        <time>2011-01-28T11:37:32.000Z</time>
      </trkpt>
      <trkpt lat="43.63393" lon="7.02746">
        <ele>219.19999694824</ele>
        <time>2011-01-28T11:37:34.000Z</time>
      </trkpt>
      <trkpt lat="43.63391" lon="7.02753">
        <ele>219.60000610352</ele>
        <time>2011-01-28T11:37:41.000Z</time>
      </trkpt>
      <trkpt lat="43.6339" lon="7.02757">
        <ele>220</ele>
        <time>2011-01-28T11:37:51.000Z</time>
      </trkpt>
      <trkpt lat="43.6339" lon="7.0276">
        <ele>220.19999694824</ele>
        <time>2011-01-28T11:37:58.000Z</time>
      </trkpt>
      <trkpt lat="43.63391" lon="7.02757">
        <ele>219.80000305176</ele>
        <time>2011-01-28T11:38:10.000Z</time>
      </trkpt>
      <trkpt lat="43.63391" lon="7.02755">
        <ele>219.80000305176</ele>
        <time>2011-01-28T11:38:19.000Z</time>
      </trkpt>
      <trkpt lat="43.63392" lon="7.02751">
        <ele>219.39999389648</ele>
        <time>2011-01-28T11:38:33.000Z</time>
      </trkpt>
      <trkpt lat="43.63395" lon="7.02751">
        <ele>219.19999694824</ele>
        <time>2011-01-28T11:38:45.000Z</time>
      </trkpt>
      <trkpt lat="43.63393" lon="7.02752">
        <ele>219.39999389648</ele>
        <time>2011-01-28T11:38:53.000Z</time>
      </trkpt>
      <trkpt lat="43.63392" lon="7.02755">
        <ele>219.80000305176</ele>
        <time>2011-01-28T11:39:05.000Z</time>
      </trkpt>
      <trkpt lat="43.63393" lon="7.02756">
        <ele>219.80000305176</ele>
        <time>2011-01-28T11:39:24.000Z</time>
      </trkpt>
      <trkpt lat="43.63393" lon="7.02757">
        <ele>219.80000305176</ele>
        <time>2011-01-28T11:39:42.000Z</time>
      </trkpt>
      <trkpt lat="43.63393" lon="7.0276">
        <ele>220</ele>
        <time>2011-01-28T11:39:52.000Z</time>
      </trkpt>
      <trkpt lat="43.63393" lon="7.02761">
        <ele>220</ele>
        <time>2011-01-28T11:40:12.000Z</time>
      </trkpt>
      <trkpt lat="43.63393" lon="7.0276">
        <ele>220</ele>
        <time>2011-01-28T11:40:32.000Z</time>
      </trkpt>
      <trkpt lat="43.63392" lon="7.0276">
        <ele>220</ele>
        <time>2011-01-28T11:40:39.000Z</time>
      </trkpt>
      <trkpt lat="43.63393" lon="7.02754">
        <ele>219.60000610352</ele>
        <time>2011-01-28T11:40:51.000Z</time>
      </trkpt>
      <trkpt lat="43.63394" lon="7.02757">
        <ele>219.60000610352</ele>
        <time>2011-01-28T11:40:56.000Z</time>
      </trkpt>
      <trkpt lat="43.63395" lon="7.0276">
        <ele>219.80000305176</ele>
        <time>2011-01-28T11:41:12.000Z</time>
      </trkpt>
      <trkpt lat="43.63389" lon="7.02759">
        <ele>220.19999694824</ele>
        <time>2011-01-28T11:41:33.000Z</time>
      </trkpt>
      <trkpt lat="43.63389" lon="7.02763">
        <ele>220.39999389648</ele>
        <time>2011-01-28T11:41:45.000Z</time>
      </trkpt>
      <trkpt lat="43.63389" lon="7.02762">
        <ele>220.39999389648</ele>
        <time>2011-01-28T11:41:58.000Z</time>
      </trkpt>
      <trkpt lat="43.63388" lon="7.02761">
        <ele>220.39999389648</ele>
        <time>2011-01-28T11:42:10.000Z</time>
      </trkpt>
      <trkpt lat="43.63387" lon="7.02765">
        <ele>220.80000305176</ele>
        <time>2011-01-28T11:42:19.000Z</time>
      </trkpt>
      <trkpt lat="43.63387" lon="7.02779">
        <ele>221.80000305176</ele>
        <time>2011-01-28T11:42:24.000Z</time>
      </trkpt>
      <trkpt lat="43.6339" lon="7.02799">
        <ele>222.80000305176</ele>
        <time>2011-01-28T11:42:30.000Z</time>
      </trkpt>
      <trkpt lat="43.63399" lon="7.02829">
        <ele>223.39999389648</ele>
        <time>2011-01-28T11:42:39.000Z</time>
      </trkpt>
      <trkpt lat="43.63406" lon="7.02854">
        <ele>223.80000305176</ele>
        <time>2011-01-28T11:42:47.000Z</time>
      </trkpt>
      <trkpt lat="43.63412" lon="7.0288">
        <ele>224.39999389648</ele>
        <time>2011-01-28T11:42:55.000Z</time>
      </trkpt>
      <trkpt lat="43.63418" lon="7.02909">
        <ele>225</ele>
        <time>2011-01-28T11:43:04.000Z</time>
      </trkpt>
      <trkpt lat="43.63423" lon="7.02938">
        <ele>224.19999694824</ele>
        <time>2011-01-28T11:43:12.000Z</time>
      </trkpt>
      <trkpt lat="43.63424" lon="7.0296">
        <ele>224</ele>
        <time>2011-01-28T11:43:18.000Z</time>
      </trkpt>
      <trkpt lat="43.63423" lon="7.02971">
        <ele>224.19999694824</ele>
        <time>2011-01-28T11:43:23.000Z</time>
      </trkpt>
      <trkpt lat="43.63425" lon="7.02973">
        <ele>224</ele>
        <time>2011-01-28T11:43:27.000Z</time>
      </trkpt>
      <trkpt lat="43.63425" lon="7.02969">
        <ele>223.80000305176</ele>
        <time>2011-01-28T11:43:29.000Z</time>
      </trkpt>
      <trkpt lat="43.63424" lon="7.02969">
        <ele>224</ele>
        <time>2011-01-28T11:43:33.000Z</time>
      </trkpt>
      <trkpt lat="43.63425" lon="7.02972">
        <ele>224</ele>
        <time>2011-01-28T11:43:38.000Z</time>
      </trkpt>
      <trkpt lat="43.63428" lon="7.02968">
        <ele>223</ele>
        <time>2011-01-28T11:43:41.000Z</time>
      </trkpt>
      <trkpt lat="43.6344" lon="7.02955">
        <ele>220</ele>
        <time>2011-01-28T11:43:46.000Z</time>
      </trkpt>
      <trkpt lat="43.63441" lon="7.02952">
        <ele>219.80000305176</ele>
        <time>2011-01-28T11:43:47.000Z</time>
      </trkpt>
      <trkpt lat="43.63444" lon="7.02942">
        <ele>219.39999389648</ele>
        <time>2011-01-28T11:43:52.000Z</time>
      </trkpt>
      <trkpt lat="43.63448" lon="7.02928">
        <ele>218.39999389648</ele>
        <time>2011-01-28T11:43:56.000Z</time>
      </trkpt>
      <trkpt lat="43.6345" lon="7.0292">
        <ele>217.80000305176</ele>
        <time>2011-01-28T11:43:58.000Z</time>
      </trkpt>
      <trkpt lat="43.6345" lon="7.02901">
        <ele>217.19999694824</ele>
        <time>2011-01-28T11:44:02.000Z</time>
      </trkpt>
      <trkpt lat="43.63453" lon="7.02877">
        <ele>215.19999694824</ele>
        <time>2011-01-28T11:44:07.000Z</time>
      </trkpt>
      <trkpt lat="43.63453" lon="7.02869">
        <ele>214.80000305176</ele>
        <time>2011-01-28T11:44:11.000Z</time>
      </trkpt>
      <trkpt lat="43.63453" lon="7.02868">
        <ele>214.80000305176</ele>
        <time>2011-01-28T11:44:12.000Z</time>
      </trkpt>
      <trkpt lat="43.63458" lon="7.02859">
        <ele>213.19999694824</ele>
        <time>2011-01-28T11:44:19.000Z</time>
      </trkpt>
      <trkpt lat="43.63456" lon="7.02854">
        <ele>213.39999389648</ele>
        <time>2011-01-28T11:44:29.000Z</time>
      </trkpt>
      <trkpt lat="43.63455" lon="7.0285">
        <ele>213.39999389648</ele>
        <time>2011-01-28T11:44:34.000Z</time>
      </trkpt>
      <trkpt lat="43.63453" lon="7.02846">
        <ele>213.60000610352</ele>
        <time>2011-01-28T11:44:36.000Z</time>
      </trkpt>
      <trkpt lat="43.63452" lon="7.02843">
        <ele>213.80000305176</ele>
        <time>2011-01-28T11:44:43.000Z</time>
      </trkpt>
      <trkpt lat="43.63451" lon="7.02842">
        <ele>213.80000305176</ele>
        <time>2011-01-28T11:44:44.000Z</time>
      </trkpt>
      <trkpt lat="43.63443" lon="7.02818">
        <ele>214.80000305176</ele>
        <time>2011-01-28T11:44:49.000Z</time>
      </trkpt>
      <trkpt lat="43.63442" lon="7.0279">
        <ele>214.60000610352</ele>
        <time>2011-01-28T11:44:53.000Z</time>
      </trkpt>
      <trkpt lat="43.63445" lon="7.02781">
        <ele>214</ele>
        <time>2011-01-28T11:44:55.000Z</time>
      </trkpt>
      <trkpt lat="43.63454" lon="7.02775">
        <ele>212.39999389648</ele>
        <time>2011-01-28T11:44:59.000Z</time>
      </trkpt>
      <trkpt lat="43.63458" lon="7.02767">
        <ele>211.60000610352</ele>
        <time>2011-01-28T11:45:01.000Z</time>
      </trkpt>
      <trkpt lat="43.63473" lon="7.02763">
        <ele>209</ele>
        <time>2011-01-28T11:45:06.000Z</time>
      </trkpt>
      <trkpt lat="43.63485" lon="7.02769">
        <ele>207</ele>
        <time>2011-01-28T11:45:09.000Z</time>
      </trkpt>
      <trkpt lat="43.63494" lon="7.02773">
        <ele>205.39999389648</ele>
        <time>2011-01-28T11:45:12.000Z</time>
      </trkpt>
      <trkpt lat="43.63508" lon="7.02763">
        <ele>203</ele>
        <time>2011-01-28T11:45:16.000Z</time>
      </trkpt>
      <trkpt lat="43.63527" lon="7.02757">
        <ele>199.39999389648</ele>
        <time>2011-01-28T11:45:20.000Z</time>
      </trkpt>
      <trkpt lat="43.63532" lon="7.02754">
        <ele>198.39999389648</ele>
        <time>2011-01-28T11:45:21.000Z</time>
      </trkpt>
      <trkpt lat="43.63549" lon="7.02734">
        <ele>197.19999694824</ele>
        <time>2011-01-28T11:45:25.000Z</time>
      </trkpt>
      <trkpt lat="43.63573" lon="7.02711">
        <ele>195.19999694824</ele>
        <time>2011-01-28T11:45:30.000Z</time>
      </trkpt>
      <trkpt lat="43.6359" lon="7.02685">
        <ele>195.60000610352</ele>
        <time>2011-01-28T11:45:34.000Z</time>
      </trkpt>
      <trkpt lat="43.63593" lon="7.02679">
        <ele>196</ele>
        <time>2011-01-28T11:45:35.000Z</time>
      </trkpt>
      <trkpt lat="43.63601" lon="7.02649">
        <ele>197</ele>
        <time>2011-01-28T11:45:40.000Z</time>
      </trkpt>
      <trkpt lat="43.63615" lon="7.0263">
        <ele>196.19999694824</ele>
        <time>2011-01-28T11:45:44.000Z</time>
      </trkpt>
      <trkpt lat="43.63623" lon="7.02621">
        <ele>196</ele>
        <time>2011-01-28T11:45:46.000Z</time>
      </trkpt>
      <trkpt lat="43.63634" lon="7.02618">
        <ele>195.39999389648</ele>
        <time>2011-01-28T11:45:50.000Z</time>
      </trkpt>
      <trkpt lat="43.63634" lon="7.02618">
        <ele>195.19999694824</ele>
        <time>2011-01-28T11:45:51.000Z</time>
      </trkpt>
      <trkpt lat="43.63638" lon="7.02629">
        <ele>194.19999694824</ele>
        <time>2011-01-28T11:45:58.000Z</time>
      </trkpt>
      <trkpt lat="43.63645" lon="7.02649">
        <ele>192</ele>
        <time>2011-01-28T11:46:04.000Z</time>
      </trkpt>
      <trkpt lat="43.63658" lon="7.02677">
        <ele>186.80000305176</ele>
        <time>2011-01-28T11:46:09.000Z</time>
      </trkpt>
      <trkpt lat="43.63665" lon="7.02684">
        <ele>184.39999389648</ele>
        <time>2011-01-28T11:46:11.000Z</time>
      </trkpt>
      <trkpt lat="43.63682" lon="7.02674">
        <ele>183.80000305176</ele>
        <time>2011-01-28T11:46:15.000Z</time>
      </trkpt>
      <trkpt lat="43.63686" lon="7.0267">
        <ele>184.19999694824</ele>
        <time>2011-01-28T11:46:16.000Z</time>
      </trkpt>
      <trkpt lat="43.63695" lon="7.02663">
        <ele>183.80000305176</ele>
        <time>2011-01-28T11:46:18.000Z</time>
      </trkpt>
      <trkpt lat="43.63712" lon="7.02652">
        <ele>183.19999694824</ele>
        <time>2011-01-28T11:46:21.000Z</time>
      </trkpt>
      <trkpt lat="43.63729" lon="7.02646">
        <ele>182</ele>
        <time>2011-01-28T11:46:24.000Z</time>
      </trkpt>
      <trkpt lat="43.63741" lon="7.02645">
        <ele>180.80000305176</ele>
        <time>2011-01-28T11:46:26.000Z</time>
      </trkpt>
      <trkpt lat="43.63747" lon="7.0264">
        <ele>181</ele>
        <time>2011-01-28T11:46:28.000Z</time>
      </trkpt>
      <trkpt lat="43.63772" lon="7.02626">
        <ele>179</ele>
        <time>2011-01-28T11:46:33.000Z</time>
      </trkpt>
      <trkpt lat="43.63783" lon="7.02619">
        <ele>178</ele>
        <time>2011-01-28T11:46:35.000Z</time>
      </trkpt>
      <trkpt lat="43.63805" lon="7.02609">
        <ele>175</ele>
        <time>2011-01-28T11:46:39.000Z</time>
      </trkpt>
      <trkpt lat="43.63818" lon="7.02603">
        <ele>172.80000305176</ele>
        <time>2011-01-28T11:46:43.000Z</time>
      </trkpt>
      <trkpt lat="43.63819" lon="7.02604">
        <ele>172.39999389648</ele>
        <time>2011-01-28T11:46:44.000Z</time>
      </trkpt>
      <trkpt lat="43.63816" lon="7.0262">
        <ele>170.80000305176</ele>
        <time>2011-01-28T11:46:49.000Z</time>
      </trkpt>
      <trkpt lat="43.63807" lon="7.0263">
        <ele>171.19999694824</ele>
        <time>2011-01-28T11:46:54.000Z</time>
      </trkpt>
      <trkpt lat="43.63799" lon="7.02636">
        <ele>171.80000305176</ele>
        <time>2011-01-28T11:47:01.000Z</time>
      </trkpt>
      <trkpt lat="43.6379" lon="7.02639">
        <ele>173</ele>
        <time>2011-01-28T11:47:07.000Z</time>
      </trkpt>
      <trkpt lat="43.63776" lon="7.02645">
        <ele>174.80000305176</ele>
        <time>2011-01-28T11:47:15.000Z</time>
      </trkpt>
      <trkpt lat="43.63765" lon="7.02652">
        <ele>175.39999389648</ele>
        <time>2011-01-28T11:47:23.000Z</time>
      </trkpt>
      <trkpt lat="43.63747" lon="7.02656">
        <ele>177.60000610352</ele>
        <time>2011-01-28T11:47:32.000Z</time>
      </trkpt>
      <trkpt lat="43.63729" lon="7.02661">
        <ele>179.39999389648</ele>
        <time>2011-01-28T11:47:41.000Z</time>
      </trkpt>
      <trkpt lat="43.63714" lon="7.02666">
        <ele>180.39999389648</ele>
        <time>2011-01-28T11:47:49.000Z</time>
      </trkpt>
      <trkpt lat="43.63699" lon="7.02676">
        <ele>180.80000305176</ele>
        <time>2011-01-28T11:47:57.000Z</time>
      </trkpt>
      <trkpt lat="43.63685" lon="7.02686">
        <ele>180.60000610352</ele>
        <time>2011-01-28T11:48:05.000Z</time>
      </trkpt>
      <trkpt lat="43.63671" lon="7.02698">
        <ele>180</ele>
        <time>2011-01-28T11:48:13.000Z</time>
      </trkpt>
      <trkpt lat="43.63658" lon="7.02701">
        <ele>181.80000305176</ele>
        <time>2011-01-28T11:48:20.000Z</time>
      </trkpt>
      <trkpt lat="43.63649" lon="7.02692">
        <ele>185</ele>
        <time>2011-01-28T11:48:25.000Z</time>
      </trkpt>
      <trkpt lat="43.63642" lon="7.02669">
        <ele>190.60000610352</ele>
        <time>2011-01-28T11:48:34.000Z</time>
      </trkpt>
      <trkpt lat="43.63636" lon="7.02646">
        <ele>193.39999389648</ele>
        <time>2011-01-28T11:48:41.000Z</time>
      </trkpt>
      <trkpt lat="43.63633" lon="7.02641">
        <ele>194</ele>
        <time>2011-01-28T11:48:43.000Z</time>
      </trkpt>
      <trkpt lat="43.63626" lon="7.02641">
        <ele>194.60000610352</ele>
        <time>2011-01-28T11:48:47.000Z</time>
      </trkpt>
      <trkpt lat="43.63615" lon="7.02658">
        <ele>195</ele>
        <time>2011-01-28T11:48:53.000Z</time>
      </trkpt>
      <trkpt lat="43.6361" lon="7.02667">
        <ele>195.19999694824</ele>
        <time>2011-01-28T11:48:57.000Z</time>
      </trkpt>
      <trkpt lat="43.63602" lon="7.0268">
        <ele>194.39999389648</ele>
        <time>2011-01-28T11:49:03.000Z</time>
      </trkpt>
      <trkpt lat="43.63594" lon="7.02696">
        <ele>193.60000610352</ele>
        <time>2011-01-28T11:49:10.000Z</time>
      </trkpt>
      <trkpt lat="43.63587" lon="7.02706">
        <ele>193.39999389648</ele>
        <time>2011-01-28T11:49:15.000Z</time>
      </trkpt>
      <trkpt lat="43.63579" lon="7.02723">
        <ele>193</ele>
        <time>2011-01-28T11:49:21.000Z</time>
      </trkpt>
      <trkpt lat="43.63568" lon="7.02737">
        <ele>193.39999389648</ele>
        <time>2011-01-28T11:49:28.000Z</time>
      </trkpt>
      <trkpt lat="43.63556" lon="7.0275">
        <ele>194.19999694824</ele>
        <time>2011-01-28T11:49:35.000Z</time>
      </trkpt>
      <trkpt lat="43.63537" lon="7.02762">
        <ele>197</ele>
        <time>2011-01-28T11:49:43.000Z</time>
      </trkpt>
      <trkpt lat="43.6352" lon="7.02774">
        <ele>200</ele>
        <time>2011-01-28T11:49:50.000Z</time>
      </trkpt>
      <trkpt lat="43.63506" lon="7.02784">
        <ele>202.60000610352</ele>
        <time>2011-01-28T11:49:56.000Z</time>
      </trkpt>
      <trkpt lat="43.63496" lon="7.02799">
        <ele>204.60000610352</ele>
        <time>2011-01-28T11:50:01.000Z</time>
      </trkpt>
      <trkpt lat="43.63498" lon="7.02825">
        <ele>203.60000610352</ele>
        <time>2011-01-28T11:50:07.000Z</time>
      </trkpt>
      <trkpt lat="43.63505" lon="7.02852">
        <ele>202.19999694824</ele>
        <time>2011-01-28T11:50:14.000Z</time>
      </trkpt>
      <trkpt lat="43.63513" lon="7.02875">
        <ele>200.60000610352</ele>
        <time>2011-01-28T11:50:20.000Z</time>
      </trkpt>
      <trkpt lat="43.63522" lon="7.02911">
        <ele>198.80000305176</ele>
        <time>2011-01-28T11:50:31.000Z</time>
      </trkpt>
      <trkpt lat="43.63521" lon="7.02936">
        <ele>198.80000305176</ele>
        <time>2011-01-28T11:50:38.000Z</time>
      </trkpt>
      <trkpt lat="43.63519" lon="7.02961">
        <ele>199.19999694824</ele>
        <time>2011-01-28T11:50:45.000Z</time>
      </trkpt>
      <trkpt lat="43.63519" lon="7.02986">
        <ele>199</ele>
        <time>2011-01-28T11:50:52.000Z</time>
      </trkpt>
      <trkpt lat="43.6352" lon="7.03008">
        <ele>198.60000610352</ele>
        <time>2011-01-28T11:50:58.000Z</time>
      </trkpt>
      <trkpt lat="43.63519" lon="7.03035">
        <ele>199.19999694824</ele>
        <time>2011-01-28T11:51:06.000Z</time>
      </trkpt>
      <trkpt lat="43.6352" lon="7.03048">
        <ele>199</ele>
        <time>2011-01-28T11:51:10.000Z</time>
      </trkpt>
      <trkpt lat="43.63521" lon="7.03075">
        <ele>199.19999694824</ele>
        <time>2011-01-28T11:51:17.000Z</time>
      </trkpt>
      <trkpt lat="43.6352" lon="7.03106">
        <ele>200</ele>
        <time>2011-01-28T11:51:25.000Z</time>
      </trkpt>
      <trkpt lat="43.63518" lon="7.03135">
        <ele>200.80000305176</ele>
        <time>2011-01-28T11:51:33.000Z</time>
      </trkpt>
      <trkpt lat="43.63515" lon="7.03167">
        <ele>201.80000305176</ele>
        <time>2011-01-28T11:51:41.000Z</time>
      </trkpt>
      <trkpt lat="43.63511" lon="7.03193">
        <ele>202.19999694824</ele>
        <time>2011-01-28T11:51:48.000Z</time>
      </trkpt>
      <trkpt lat="43.63506" lon="7.03215">
        <ele>203.39999389648</ele>
        <time>2011-01-28T11:51:54.000Z</time>
      </trkpt>
      <trkpt lat="43.63498" lon="7.0324">
        <ele>204.39999389648</ele>
        <time>2011-01-28T11:52:01.000Z</time>
      </trkpt>
      <trkpt lat="43.63489" lon="7.03258">
        <ele>204</ele>
        <time>2011-01-28T11:52:07.000Z</time>
      </trkpt>
      <trkpt lat="43.63473" lon="7.03284">
        <ele>203.39999389648</ele>
        <time>2011-01-28T11:52:16.000Z</time>
      </trkpt>
      <trkpt lat="43.63461" lon="7.03298">
        <ele>203.39999389648</ele>
        <time>2011-01-28T11:52:22.000Z</time>
      </trkpt>
      <trkpt lat="43.63449" lon="7.03305">
        <ele>204.19999694824</ele>
        <time>2011-01-28T11:52:27.000Z</time>
      </trkpt>
      <trkpt lat="43.63432" lon="7.03314">
        <ele>205.39999389648</ele>
        <time>2011-01-28T11:52:33.000Z</time>
      </trkpt>
      <trkpt lat="43.63415" lon="7.03331">
        <ele>206.19999694824</ele>
        <time>2011-01-28T11:52:39.000Z</time>
      </trkpt>
      <trkpt lat="43.63403" lon="7.03344">
        <ele>205.60000610352</ele>
        <time>2011-01-28T11:52:44.000Z</time>
      </trkpt>
      <trkpt lat="43.63387" lon="7.03357">
        <ele>205</ele>
        <time>2011-01-28T11:52:50.000Z</time>
      </trkpt>
      <trkpt lat="43.63367" lon="7.03368">
        <ele>204.60000610352</ele>
        <time>2011-01-28T11:52:57.000Z</time>
      </trkpt>
      <trkpt lat="43.63342" lon="7.03374">
        <ele>205.19999694824</ele>
        <time>2011-01-28T11:53:04.000Z</time>
      </trkpt>
      <trkpt lat="43.6331" lon="7.03383">
        <ele>204.19999694824</ele>
        <time>2011-01-28T11:53:12.000Z</time>
      </trkpt>
      <trkpt lat="43.63289" lon="7.03387">
        <ele>203.60000610352</ele>
        <time>2011-01-28T11:53:18.000Z</time>
      </trkpt>
      <trkpt lat="43.63272" lon="7.03391">
        <ele>203</ele>
        <time>2011-01-28T11:53:23.000Z</time>
      </trkpt>
      <trkpt lat="43.63254" lon="7.03398">
        <ele>202</ele>
        <time>2011-01-28T11:53:29.000Z</time>
      </trkpt>
      <trkpt lat="43.63232" lon="7.03401">
        <ele>197.80000305176</ele>
        <time>2011-01-28T11:53:36.000Z</time>
      </trkpt>
      <trkpt lat="43.63216" lon="7.03393">
        <ele>195.39999389648</ele>
        <time>2011-01-28T11:53:41.000Z</time>
      </trkpt>
      <trkpt lat="43.63206" lon="7.03379">
        <ele>194.60000610352</ele>
        <time>2011-01-28T11:53:45.000Z</time>
      </trkpt>
      <trkpt lat="43.63192" lon="7.0336">
        <ele>193.80000305176</ele>
        <time>2011-01-28T11:53:51.000Z</time>
      </trkpt>
      <trkpt lat="43.63182" lon="7.03347">
        <ele>193</ele>
        <time>2011-01-28T11:53:56.000Z</time>
      </trkpt>
      <trkpt lat="43.63174" lon="7.0333">
        <ele>192.60000610352</ele>
        <time>2011-01-28T11:54:01.000Z</time>
      </trkpt>
      <trkpt lat="43.63171" lon="7.03327">
        <ele>192.19999694824</ele>
        <time>2011-01-28T11:54:04.000Z</time>
      </trkpt>
      <trkpt lat="43.63169" lon="7.03339">
        <ele>191</ele>
        <time>2011-01-28T11:54:09.000Z</time>
      </trkpt>
      <trkpt lat="43.63168" lon="7.03353">
        <ele>189.39999389648</ele>
        <time>2011-01-28T11:54:14.000Z</time>
      </trkpt>
      <trkpt lat="43.63166" lon="7.03357">
        <ele>188.60000610352</ele>
        <time>2011-01-28T11:54:16.000Z</time>
      </trkpt>
      <trkpt lat="43.63163" lon="7.03357">
        <ele>187.60000610352</ele>
        <time>2011-01-28T11:54:23.000Z</time>
      </trkpt>
      <trkpt lat="43.63161" lon="7.03353">
        <ele>187.19999694824</ele>
        <time>2011-01-28T11:54:30.000Z</time>
      </trkpt>
      <trkpt lat="43.63155" lon="7.03333">
        <ele>186.60000610352</ele>
        <time>2011-01-28T11:54:36.000Z</time>
      </trkpt>
      <trkpt lat="43.63154" lon="7.03329">
        <ele>186.60000610352</ele>
        <time>2011-01-28T11:54:37.000Z</time>
      </trkpt>
      <trkpt lat="43.63152" lon="7.03326">
        <ele>186.19999694824</ele>
        <time>2011-01-28T11:54:39.000Z</time>
      </trkpt>
      <trkpt lat="43.63151" lon="7.03328">
        <ele>185.60000610352</ele>
        <time>2011-01-28T11:54:41.000Z</time>
      </trkpt>
      <trkpt lat="43.63151" lon="7.03349">
        <ele>184</ele>
        <time>2011-01-28T11:54:46.000Z</time>
      </trkpt>
      <trkpt lat="43.63155" lon="7.03359">
        <ele>184.60000610352</ele>
        <time>2011-01-28T11:54:49.000Z</time>
      </trkpt>
      <trkpt lat="43.63155" lon="7.03363">
        <ele>184.19999694824</ele>
        <time>2011-01-28T11:54:50.000Z</time>
      </trkpt>
      <trkpt lat="43.63157" lon="7.0339">
        <ele>182.60000610352</ele>
        <time>2011-01-28T11:54:55.000Z</time>
      </trkpt>
      <trkpt lat="43.63159" lon="7.0341">
        <ele>181.60000610352</ele>
        <time>2011-01-28T11:54:59.000Z</time>
      </trkpt>
      <trkpt lat="43.63165" lon="7.0344">
        <ele>178.80000305176</ele>
        <time>2011-01-28T11:55:04.000Z</time>
      </trkpt>
      <trkpt lat="43.63166" lon="7.0346">
        <ele>176</ele>
        <time>2011-01-28T11:55:09.000Z</time>
      </trkpt>
      <trkpt lat="43.63169" lon="7.03465">
        <ele>176</ele>
        <time>2011-01-28T11:55:12.000Z</time>
      </trkpt>
      <trkpt lat="43.6318" lon="7.03484">
        <ele>175</ele>
        <time>2011-01-28T11:55:17.000Z</time>
      </trkpt>
      <trkpt lat="43.63193" lon="7.03504">
        <ele>174.39999389648</ele>
        <time>2011-01-28T11:55:21.000Z</time>
      </trkpt>
      <trkpt lat="43.632" lon="7.03518">
        <ele>173.19999694824</ele>
        <time>2011-01-28T11:55:25.000Z</time>
      </trkpt>
      <trkpt lat="43.63211" lon="7.03535">
        <ele>172.19999694824</ele>
        <time>2011-01-28T11:55:30.000Z</time>
      </trkpt>
      <trkpt lat="43.63222" lon="7.03558">
        <ele>170.60000610352</ele>
        <time>2011-01-28T11:55:35.000Z</time>
      </trkpt>
      <trkpt lat="43.63226" lon="7.03574">
        <ele>168.60000610352</ele>
        <time>2011-01-28T11:55:39.000Z</time>
      </trkpt>
      <trkpt lat="43.63229" lon="7.03583">
        <ele>167.39999389648</ele>
        <time>2011-01-28T11:55:43.000Z</time>
      </trkpt>
      <trkpt lat="43.63231" lon="7.03587">
        <ele>167.19999694824</ele>
        <time>2011-01-28T11:55:47.000Z</time>
      </trkpt>
      <trkpt lat="43.63236" lon="7.03603">
        <ele>165.60000610352</ele>
        <time>2011-01-28T11:55:52.000Z</time>
      </trkpt>
      <trkpt lat="43.6324" lon="7.03609">
        <ele>165.19999694824</ele>
        <time>2011-01-28T11:55:54.000Z</time>
      </trkpt>
      <trkpt lat="43.63245" lon="7.03629">
        <ele>162.39999389648</ele>
        <time>2011-01-28T11:55:58.000Z</time>
      </trkpt>
      <trkpt lat="43.63256" lon="7.03657">
        <ele>158.60000610352</ele>
        <time>2011-01-28T11:56:03.000Z</time>
      </trkpt>
      <trkpt lat="43.63258" lon="7.0367">
        <ele>156.60000610352</ele>
        <time>2011-01-28T11:56:05.000Z</time>
      </trkpt>
      <trkpt lat="43.63259" lon="7.03678">
        <ele>155.60000610352</ele>
        <time>2011-01-28T11:56:07.000Z</time>
      </trkpt>
      <trkpt lat="43.6327" lon="7.03698">
        <ele>153.60000610352</ele>
        <time>2011-01-28T11:56:12.000Z</time>
      </trkpt>
      <trkpt lat="43.63271" lon="7.03701">
        <ele>153.19999694824</ele>
        <time>2011-01-28T11:56:13.000Z</time>
      </trkpt>
      <trkpt lat="43.63273" lon="7.03729">
        <ele>148.39999389648</ele>
        <time>2011-01-28T11:56:18.000Z</time>
      </trkpt>
      <trkpt lat="43.63275" lon="7.03742">
        <ele>146.19999694824</ele>
        <time>2011-01-28T11:56:22.000Z</time>
      </trkpt>
      <trkpt lat="43.63267" lon="7.03751">
        <ele>144.39999389648</ele>
        <time>2011-01-28T11:56:27.000Z</time>
      </trkpt>
      <trkpt lat="43.63261" lon="7.03758">
        <ele>143</ele>
        <time>2011-01-28T11:56:31.000Z</time>
      </trkpt>
      <trkpt lat="43.63262" lon="7.03762">
        <ele>142.39999389648</ele>
        <time>2011-01-28T11:56:34.000Z</time>
      </trkpt>
      <trkpt lat="43.63264" lon="7.03767">
        <ele>141.80000305176</ele>
        <time>2011-01-28T11:56:37.000Z</time>
      </trkpt>
      <trkpt lat="43.63262" lon="7.03767">
        <ele>141.80000305176</ele>
        <time>2011-01-28T11:56:38.000Z</time>
      </trkpt>
      <trkpt lat="43.63254" lon="7.0377">
        <ele>141.19999694824</ele>
        <time>2011-01-28T11:56:43.000Z</time>
      </trkpt>
      <trkpt lat="43.63249" lon="7.03778">
        <ele>140</ele>
        <time>2011-01-28T11:56:48.000Z</time>
      </trkpt>
      <trkpt lat="43.63246" lon="7.03777">
        <ele>140.60000610352</ele>
        <time>2011-01-28T11:56:49.000Z</time>
      </trkpt>
      <trkpt lat="43.63241" lon="7.03774">
        <ele>141.80000305176</ele>
        <time>2011-01-28T11:56:54.000Z</time>
      </trkpt>
      <trkpt lat="43.63244" lon="7.03775">
        <ele>141.39999389648</ele>
        <time>2011-01-28T11:56:59.000Z</time>
      </trkpt>
      <trkpt lat="43.63245" lon="7.03776">
        <ele>141</ele>
        <time>2011-01-28T11:57:04.000Z</time>
      </trkpt>
      <trkpt lat="43.63245" lon="7.03774">
        <ele>141.19999694824</ele>
        <time>2011-01-28T11:57:10.000Z</time>
      </trkpt>
      <trkpt lat="43.63242" lon="7.03773">
        <ele>141.80000305176</ele>
        <time>2011-01-28T11:57:12.000Z</time>
      </trkpt>
      <trkpt lat="43.63237" lon="7.03772">
        <ele>142.60000610352</ele>
        <time>2011-01-28T11:57:17.000Z</time>
      </trkpt>
      <trkpt lat="43.63234" lon="7.03773">
        <ele>143</ele>
        <time>2011-01-28T11:57:23.000Z</time>
      </trkpt>
      <trkpt lat="43.6324" lon="7.03775">
        <ele>141.80000305176</ele>
        <time>2011-01-28T11:57:30.000Z</time>
      </trkpt>
      <trkpt lat="43.6324" lon="7.03774">
        <ele>142</ele>
        <time>2011-01-28T11:57:33.000Z</time>
      </trkpt>
      <trkpt lat="43.63233" lon="7.0377">
        <ele>143.39999389648</ele>
        <time>2011-01-28T11:57:37.000Z</time>
      </trkpt>
      <trkpt lat="43.63232" lon="7.03771">
        <ele>143.60000610352</ele>
        <time>2011-01-28T11:57:39.000Z</time>
      </trkpt>
      <trkpt lat="43.63232" lon="7.03777">
        <ele>143</ele>
        <time>2011-01-28T11:57:43.000Z</time>
      </trkpt>
      <trkpt lat="43.63236" lon="7.03784">
        <ele>141.60000610352</ele>
        <time>2011-01-28T11:57:48.000Z</time>
      </trkpt>
      <trkpt lat="43.63247" lon="7.03799">
        <ele>137.39999389648</ele>
        <time>2011-01-28T11:57:53.000Z</time>
      </trkpt>
      <trkpt lat="43.63253" lon="7.03811">
        <ele>135.19999694824</ele>
        <time>2011-01-28T11:57:57.000Z</time>
      </trkpt>
      <trkpt lat="43.63258" lon="7.03823">
        <ele>133.39999389648</ele>
        <time>2011-01-28T11:58:00.000Z</time>
      </trkpt>
      <trkpt lat="43.63254" lon="7.03827">
        <ele>132.60000610352</ele>
        <time>2011-01-28T11:58:04.000Z</time>
      </trkpt>
      <trkpt lat="43.63251" lon="7.03829">
        <ele>132.60000610352</ele>
        <time>2011-01-28T11:58:06.000Z</time>
      </trkpt>
      <trkpt lat="43.63257" lon="7.03841">
        <ele>131.60000610352</ele>
        <time>2011-01-28T11:58:14.000Z</time>
      </trkpt>
      <trkpt lat="43.63264" lon="7.03845">
        <ele>131.39999389648</ele>
        <time>2011-01-28T11:58:18.000Z</time>
      </trkpt>
      <trkpt lat="43.6326" lon="7.03856">
        <ele>131</ele>
        <time>2011-01-28T11:58:23.000Z</time>
      </trkpt>
      <trkpt lat="43.63257" lon="7.0386">
        <ele>131</ele>
        <time>2011-01-28T11:58:24.000Z</time>
      </trkpt>
      <trkpt lat="43.63248" lon="7.03872">
        <ele>131</ele>
        <time>2011-01-28T11:58:29.000Z</time>
      </trkpt>
      <trkpt lat="43.63244" lon="7.03874">
        <ele>132</ele>
        <time>2011-01-28T11:58:39.000Z</time>
      </trkpt>
      <trkpt lat="43.63247" lon="7.03872">
        <ele>131.19999694824</ele>
        <time>2011-01-28T11:58:48.000Z</time>
      </trkpt>
      <trkpt lat="43.63248" lon="7.03866">
        <ele>131.19999694824</ele>
        <time>2011-01-28T11:58:55.000Z</time>
      </trkpt>
      <trkpt lat="43.63241" lon="7.03879">
        <ele>132.60000610352</ele>
        <time>2011-01-28T11:59:08.000Z</time>
      </trkpt>
      <trkpt lat="43.63241" lon="7.0388">
        <ele>132.80000305176</ele>
        <time>2011-01-28T11:59:15.000Z</time>
      </trkpt>
      <trkpt lat="43.63241" lon="7.03882">
        <ele>132.39999389648</ele>
        <time>2011-01-28T11:59:16.000Z</time>
      </trkpt>
      <trkpt lat="43.63242" lon="7.03881">
        <ele>132.39999389648</ele>
        <time>2011-01-28T11:59:23.000Z</time>
      </trkpt>
      <trkpt lat="43.63241" lon="7.03881">
        <ele>132.39999389648</ele>
        <time>2011-01-28T11:59:42.000Z</time>
      </trkpt>
      <trkpt lat="43.63249" lon="7.03873">
        <ele>130.80000305176</ele>
        <time>2011-01-28T12:00:21.000Z</time>
      </trkpt>
      <trkpt lat="43.63254" lon="7.03868">
        <ele>130.80000305176</ele>
        <time>2011-01-28T12:00:33.000Z</time>
      </trkpt>
      <trkpt lat="43.63236" lon="7.03876">
        <ele>134</ele>
        <time>2011-01-28T12:00:57.000Z</time>
      </trkpt>
      <trkpt lat="43.63234" lon="7.03878">
        <ele>134.39999389648</ele>
        <time>2011-01-28T12:01:10.000Z</time>
      </trkpt>
      <trkpt lat="43.63225" lon="7.03882">
        <ele>136.80000305176</ele>
        <time>2011-01-28T12:01:20.000Z</time>
      </trkpt>
      <trkpt lat="43.63223" lon="7.03882">
        <ele>137.19999694824</ele>
        <time>2011-01-28T12:01:27.000Z</time>
      </trkpt>
      <trkpt lat="43.63224" lon="7.03881">
        <ele>137</ele>
        <time>2011-01-28T12:01:42.000Z</time>
      </trkpt>
      <trkpt lat="43.63228" lon="7.03879">
        <ele>136</ele>
        <time>2011-01-28T12:02:02.000Z</time>
      </trkpt>
      <trkpt lat="43.63241" lon="7.03872">
        <ele>132.80000305176</ele>
        <time>2011-01-28T12:02:29.000Z</time>
      </trkpt>
      <trkpt lat="43.63245" lon="7.03875">
        <ele>131.60000610352</ele>
        <time>2011-01-28T12:02:36.000Z</time>
      </trkpt>
      <trkpt lat="43.63253" lon="7.03862">
        <ele>130.80000305176</ele>
        <time>2011-01-28T12:03:15.000Z</time>
      </trkpt>
      <trkpt lat="43.63255" lon="7.0387">
        <ele>130.60000610352</ele>
        <time>2011-01-28T12:03:28.000Z</time>
      </trkpt>
      <trkpt lat="43.63259" lon="7.03871">
        <ele>130.80000305176</ele>
        <time>2011-01-28T12:03:34.000Z</time>
      </trkpt>
      <trkpt lat="43.63263" lon="7.0387">
        <ele>130.80000305176</ele>
        <time>2011-01-28T12:03:39.000Z</time>
      </trkpt>
      <trkpt lat="43.63274" lon="7.03854">
        <ele>131.19999694824</ele>
        <time>2011-01-28T12:03:44.000Z</time>
      </trkpt>
      <trkpt lat="43.63283" lon="7.03839">
        <ele>131.19999694824</ele>
        <time>2011-01-28T12:03:48.000Z</time>
      </trkpt>
      <trkpt lat="43.63286" lon="7.03835">
        <ele>131</ele>
        <time>2011-01-28T12:03:50.000Z</time>
      </trkpt>
      <trkpt lat="43.63297" lon="7.03828">
        <ele>131.80000305176</ele>
        <time>2011-01-28T12:03:56.000Z</time>
      </trkpt>
      <trkpt lat="43.633" lon="7.03826">
        <ele>132</ele>
        <time>2011-01-28T12:03:58.000Z</time>
      </trkpt>
      <trkpt lat="43.63306" lon="7.03828">
        <ele>131.60000610352</ele>
        <time>2011-01-28T12:04:02.000Z</time>
      </trkpt>
      <trkpt lat="43.63311" lon="7.03826">
        <ele>132</ele>
        <time>2011-01-28T12:04:06.000Z</time>
      </trkpt>
      <trkpt lat="43.63322" lon="7.03825">
        <ele>131.80000305176</ele>
        <time>2011-01-28T12:04:13.000Z</time>
      </trkpt>
      <trkpt lat="43.63325" lon="7.03826">
        <ele>131.60000610352</ele>
        <time>2011-01-28T12:04:15.000Z</time>
      </trkpt>
      <trkpt lat="43.63338" lon="7.03826">
        <ele>131.80000305176</ele>
        <time>2011-01-28T12:04:20.000Z</time>
      </trkpt>
      <trkpt lat="43.63354" lon="7.03821">
        <ele>133.39999389648</ele>
        <time>2011-01-28T12:04:26.000Z</time>
      </trkpt>
      <trkpt lat="43.63368" lon="7.03818">
        <ele>134.60000610352</ele>
        <time>2011-01-28T12:04:31.000Z</time>
      </trkpt>
      <trkpt lat="43.63384" lon="7.03824">
        <ele>134.60000610352</ele>
        <time>2011-01-28T12:04:36.000Z</time>
      </trkpt>
      <trkpt lat="43.63397" lon="7.03827">
        <ele>134.60000610352</ele>
        <time>2011-01-28T12:04:42.000Z</time>
      </trkpt>
      <trkpt lat="43.63399" lon="7.03828">
        <ele>134.80000305176</ele>
        <time>2011-01-28T12:04:43.000Z</time>
      </trkpt>
      <trkpt lat="43.63411" lon="7.03831">
        <ele>135</ele>
        <time>2011-01-28T12:04:48.000Z</time>
      </trkpt>
      <trkpt lat="43.63422" lon="7.03835">
        <ele>135.60000610352</ele>
        <time>2011-01-28T12:04:53.000Z</time>
      </trkpt>
      <trkpt lat="43.63425" lon="7.03836">
        <ele>135.80000305176</ele>
        <time>2011-01-28T12:04:54.000Z</time>
      </trkpt>
      <trkpt lat="43.6344" lon="7.03838">
        <ele>137.39999389648</ele>
        <time>2011-01-28T12:05:03.000Z</time>
      </trkpt>
      <trkpt lat="43.63452" lon="7.03831">
        <ele>137.60000610352</ele>
        <time>2011-01-28T12:05:08.000Z</time>
      </trkpt>
      <trkpt lat="43.63454" lon="7.0383">
        <ele>137.80000305176</ele>
        <time>2011-01-28T12:05:09.000Z</time>
      </trkpt>
      <trkpt lat="43.63465" lon="7.03828">
        <ele>138.80000305176</ele>
        <time>2011-01-28T12:05:15.000Z</time>
      </trkpt>
      <trkpt lat="43.63469" lon="7.03825">
        <ele>139.19999694824</ele>
        <time>2011-01-28T12:05:19.000Z</time>
      </trkpt>
      <trkpt lat="43.63473" lon="7.03822">
        <ele>139.80000305176</ele>
        <time>2011-01-28T12:05:25.000Z</time>
      </trkpt>
      <trkpt lat="43.63477" lon="7.0382">
        <ele>140.19999694824</ele>
        <time>2011-01-28T12:05:29.000Z</time>
      </trkpt>
      <trkpt lat="43.63472" lon="7.0382">
        <ele>139.80000305176</ele>
        <time>2011-01-28T12:05:40.000Z</time>
      </trkpt>
      <trkpt lat="43.63472" lon="7.03816">
        <ele>140.19999694824</ele>
        <time>2011-01-28T12:05:50.000Z</time>
      </trkpt>
      <trkpt lat="43.63477" lon="7.03816">
        <ele>140.39999389648</ele>
        <time>2011-01-28T12:06:16.000Z</time>
      </trkpt>
      <trkpt lat="43.63478" lon="7.03819">
        <ele>140.19999694824</ele>
        <time>2011-01-28T12:06:25.000Z</time>
      </trkpt>
      <trkpt lat="43.63479" lon="7.03814">
        <ele>140.60000610352</ele>
        <time>2011-01-28T12:06:45.000Z</time>
      </trkpt>
      <trkpt lat="43.63481" lon="7.03815">
        <ele>140.60000610352</ele>
        <time>2011-01-28T12:06:49.000Z</time>
      </trkpt>
      <trkpt lat="43.63489" lon="7.03801">
        <ele>141.80000305176</ele>
        <time>2011-01-28T12:06:54.000Z</time>
      </trkpt>
      <trkpt lat="43.63509" lon="7.03781">
        <ele>145</ele>
        <time>2011-01-28T12:07:00.000Z</time>
      </trkpt>
      <trkpt lat="43.6352" lon="7.03766">
        <ele>147.39999389648</ele>
        <time>2011-01-28T12:07:03.000Z</time>
      </trkpt>
      <trkpt lat="43.63527" lon="7.0374">
        <ele>149.39999389648</ele>
        <time>2011-01-28T12:07:08.000Z</time>
      </trkpt>
      <trkpt lat="43.63528" lon="7.03723">
        <ele>150.39999389648</ele>
        <time>2011-01-28T12:07:13.000Z</time>
      </trkpt>
      <trkpt lat="43.63527" lon="7.03704">
        <ele>151.19999694824</ele>
        <time>2011-01-28T12:07:18.000Z</time>
      </trkpt>
      <trkpt lat="43.63528" lon="7.03673">
        <ele>152.80000305176</ele>
        <time>2011-01-28T12:07:25.000Z</time>
      </trkpt>
      <trkpt lat="43.63532" lon="7.03652">
        <ele>154.19999694824</ele>
        <time>2011-01-28T12:07:30.000Z</time>
      </trkpt>
      <trkpt lat="43.63539" lon="7.03637">
        <ele>154.60000610352</ele>
        <time>2011-01-28T12:07:36.000Z</time>
      </trkpt>
      <trkpt lat="43.63541" lon="7.03623">
        <ele>155</ele>
        <time>2011-01-28T12:07:40.000Z</time>
      </trkpt>
      <trkpt lat="43.63545" lon="7.0362">
        <ele>154.60000610352</ele>
        <time>2011-01-28T12:07:44.000Z</time>
      </trkpt>
      <trkpt lat="43.63545" lon="7.03616">
        <ele>154.80000305176</ele>
        <time>2011-01-28T12:07:53.000Z</time>
      </trkpt>
      <trkpt lat="43.63546" lon="7.03615">
        <ele>154.80000305176</ele>
        <time>2011-01-28T12:07:55.000Z</time>
      </trkpt>
      <trkpt lat="43.63561" lon="7.03604">
        <ele>152.60000610352</ele>
        <time>2011-01-28T12:08:02.000Z</time>
      </trkpt>
      <trkpt lat="43.63565" lon="7.036">
        <ele>152</ele>
        <time>2011-01-28T12:08:05.000Z</time>
      </trkpt>
      <trkpt lat="43.63572" lon="7.03597">
        <ele>150.60000610352</ele>
        <time>2011-01-28T12:08:12.000Z</time>
      </trkpt>
      <trkpt lat="43.63577" lon="7.03598">
        <ele>149.80000305176</ele>
        <time>2011-01-28T12:08:22.000Z</time>
      </trkpt>
      <trkpt lat="43.63567" lon="7.03595">
        <ele>151.39999389648</ele>
        <time>2011-01-28T12:09:40.000Z</time>
      </trkpt>
      <trkpt lat="43.6357" lon="7.03597">
        <ele>151</ele>
        <time>2011-01-28T12:09:52.000Z</time>
      </trkpt>
      <trkpt lat="43.6357" lon="7.03597">
        <ele>151</ele>
        <time>2011-01-28T12:10:04.000Z</time>
      </trkpt>
      <trkpt lat="43.63571" lon="7.03595">
        <ele>150.80000305176</ele>
        <time>2011-01-28T12:10:11.000Z</time>
      </trkpt>
      <trkpt lat="43.63578" lon="7.0358">
        <ele>149.39999389648</ele>
        <time>2011-01-28T12:10:18.000Z</time>
      </trkpt>
      <trkpt lat="43.63583" lon="7.03575">
        <ele>148.60000610352</ele>
        <time>2011-01-28T12:10:22.000Z</time>
      </trkpt>
      <trkpt lat="43.63592" lon="7.03562">
        <ele>151.80000305176</ele>
        <time>2011-01-28T12:10:29.000Z</time>
      </trkpt>
      <trkpt lat="43.63596" lon="7.0354">
        <ele>154</ele>
        <time>2011-01-28T12:10:36.000Z</time>
      </trkpt>
      <trkpt lat="43.63599" lon="7.03518">
        <ele>155.80000305176</ele>
        <time>2011-01-28T12:10:43.000Z</time>
      </trkpt>
      <trkpt lat="43.63602" lon="7.0349">
        <ele>157.80000305176</ele>
        <time>2011-01-28T12:10:51.000Z</time>
      </trkpt>
      <trkpt lat="43.63596" lon="7.03468">
        <ele>159</ele>
        <time>2011-01-28T12:10:59.000Z</time>
      </trkpt>
      <trkpt lat="43.63594" lon="7.03462">
        <ele>159.39999389648</ele>
        <time>2011-01-28T12:11:01.000Z</time>
      </trkpt>
      <trkpt lat="43.63586" lon="7.0346">
        <ele>158.80000305176</ele>
        <time>2011-01-28T12:11:06.000Z</time>
      </trkpt>
      <trkpt lat="43.63584" lon="7.03468">
        <ele>158</ele>
        <time>2011-01-28T12:11:10.000Z</time>
      </trkpt>
      <trkpt lat="43.6358" lon="7.03492">
        <ele>156.39999389648</ele>
        <time>2011-01-28T12:11:19.000Z</time>
      </trkpt>
      <trkpt lat="43.63576" lon="7.03509">
        <ele>155.80000305176</ele>
        <time>2011-01-28T12:11:25.000Z</time>
      </trkpt>
      <trkpt lat="43.63565" lon="7.03524">
        <ele>157.19999694824</ele>
        <time>2011-01-28T12:11:32.000Z</time>
      </trkpt>
      <trkpt lat="43.63557" lon="7.03535">
        <ele>158</ele>
        <time>2011-01-28T12:11:38.000Z</time>
      </trkpt>
      <trkpt lat="43.63547" lon="7.03547">
        <ele>159.39999389648</ele>
        <time>2011-01-28T12:11:45.000Z</time>
      </trkpt>
      <trkpt lat="43.63536" lon="7.03559">
        <ele>160.60000610352</ele>
        <time>2011-01-28T12:11:52.000Z</time>
      </trkpt>
      <trkpt lat="43.63526" lon="7.03569">
        <ele>162</ele>
        <time>2011-01-28T12:11:57.000Z</time>
      </trkpt>
      <trkpt lat="43.63511" lon="7.03584">
        <ele>163.60000610352</ele>
        <time>2011-01-28T12:12:05.000Z</time>
      </trkpt>
      <trkpt lat="43.63502" lon="7.03595">
        <ele>164</ele>
        <time>2011-01-28T12:12:11.000Z</time>
      </trkpt>
      <trkpt lat="43.63491" lon="7.03604">
        <ele>164.39999389648</ele>
        <time>2011-01-28T12:12:17.000Z</time>
      </trkpt>
      <trkpt lat="43.63478" lon="7.03615">
        <ele>165</ele>
        <time>2011-01-28T12:12:24.000Z</time>
      </trkpt>
      <trkpt lat="43.6347" lon="7.03626">
        <ele>164.80000305176</ele>
        <time>2011-01-28T12:12:30.000Z</time>
      </trkpt>
      <trkpt lat="43.63454" lon="7.03639">
        <ele>166</ele>
        <time>2011-01-28T12:12:39.000Z</time>
      </trkpt>
      <trkpt lat="43.63438" lon="7.03646">
        <ele>167.60000610352</ele>
        <time>2011-01-28T12:12:47.000Z</time>
      </trkpt>
      <trkpt lat="43.63419" lon="7.03651">
        <ele>170.19999694824</ele>
        <time>2011-01-28T12:12:56.000Z</time>
      </trkpt>
      <trkpt lat="43.63401" lon="7.03651">
        <ele>171</ele>
        <time>2011-01-28T12:13:04.000Z</time>
      </trkpt>
      <trkpt lat="43.63388" lon="7.03641">
        <ele>172.60000610352</ele>
        <time>2011-01-28T12:13:10.000Z</time>
      </trkpt>
      <trkpt lat="43.63378" lon="7.03635">
        <ele>173.60000610352</ele>
        <time>2011-01-28T12:13:16.000Z</time>
      </trkpt>
      <trkpt lat="43.63366" lon="7.03626">
        <ele>175.19999694824</ele>
        <time>2011-01-28T12:13:23.000Z</time>
      </trkpt>
      <trkpt lat="43.63355" lon="7.03621">
        <ele>176.39999389648</ele>
        <time>2011-01-28T12:13:29.000Z</time>
      </trkpt>
      <trkpt lat="43.63341" lon="7.03616">
        <ele>177.80000305176</ele>
        <time>2011-01-28T12:13:36.000Z</time>
      </trkpt>
      <trkpt lat="43.6333" lon="7.03609">
        <ele>178.80000305176</ele>
        <time>2011-01-28T12:13:42.000Z</time>
      </trkpt>
      <trkpt lat="43.63318" lon="7.03597">
        <ele>179.19999694824</ele>
        <time>2011-01-28T12:13:49.000Z</time>
      </trkpt>
      <trkpt lat="43.63304" lon="7.03581">
        <ele>180</ele>
        <time>2011-01-28T12:13:56.000Z</time>
      </trkpt>
      <trkpt lat="43.63293" lon="7.03562">
        <ele>181</ele>
        <time>2011-01-28T12:14:03.000Z</time>
      </trkpt>
      <trkpt lat="43.63284" lon="7.03543">
        <ele>182.60000610352</ele>
        <time>2011-01-28T12:14:10.000Z</time>
      </trkpt>
      <trkpt lat="43.63279" lon="7.03526">
        <ele>184.60000610352</ele>
        <time>2011-01-28T12:14:17.000Z</time>
      </trkpt>
      <trkpt lat="43.63279" lon="7.03515">
        <ele>186.19999694824</ele>
        <time>2011-01-28T12:14:22.000Z</time>
      </trkpt>
      <trkpt lat="43.63277" lon="7.03503">
        <ele>187.60000610352</ele>
        <time>2011-01-28T12:14:27.000Z</time>
      </trkpt>
      <trkpt lat="43.63278" lon="7.03495">
        <ele>189</ele>
        <time>2011-01-28T12:14:30.000Z</time>
      </trkpt>
      <trkpt lat="43.63279" lon="7.03475">
        <ele>191.80000305176</ele>
        <time>2011-01-28T12:14:37.000Z</time>
      </trkpt>
      <trkpt lat="43.63278" lon="7.03461">
        <ele>193.80000305176</ele>
        <time>2011-01-28T12:14:42.000Z</time>
      </trkpt>
      <trkpt lat="43.6327" lon="7.0345">
        <ele>195.19999694824</ele>
        <time>2011-01-28T12:14:48.000Z</time>
      </trkpt>
      <trkpt lat="43.63256" lon="7.03447">
        <ele>195.19999694824</ele>
        <time>2011-01-28T12:14:56.000Z</time>
      </trkpt>
      <trkpt lat="43.63241" lon="7.03444">
        <ele>193.80000305176</ele>
        <time>2011-01-28T12:15:03.000Z</time>
      </trkpt>
      <trkpt lat="43.63227" lon="7.03435">
        <ele>192.39999389648</ele>
        <time>2011-01-28T12:15:10.000Z</time>
      </trkpt>
      <trkpt lat="43.63216" lon="7.03419">
        <ele>192.60000610352</ele>
        <time>2011-01-28T12:15:17.000Z</time>
      </trkpt>
      <trkpt lat="43.63207" lon="7.03403">
        <ele>192.39999389648</ele>
        <time>2011-01-28T12:15:24.000Z</time>
      </trkpt>
      <trkpt lat="43.63202" lon="7.03393">
        <ele>192.39999389648</ele>
        <time>2011-01-28T12:15:28.000Z</time>
      </trkpt>
      <trkpt lat="43.63205" lon="7.03384">
        <ele>194</ele>
        <time>2011-01-28T12:15:32.000Z</time>
      </trkpt>
      <trkpt lat="43.63204" lon="7.03382">
        <ele>194</ele>
        <time>2011-01-28T12:15:35.000Z</time>
      </trkpt>
      <trkpt lat="43.63201" lon="7.03379">
        <ele>193.80000305176</ele>
        <time>2011-01-28T12:15:43.000Z</time>
      </trkpt>
      <trkpt lat="43.63201" lon="7.03376">
        <ele>194</ele>
        <time>2011-01-28T12:15:48.000Z</time>
      </trkpt>
      <trkpt lat="43.63198" lon="7.03354">
        <ele>195.60000610352</ele>
        <time>2011-01-28T12:15:56.000Z</time>
      </trkpt>
      <trkpt lat="43.63201" lon="7.03336">
        <ele>198</ele>
        <time>2011-01-28T12:16:02.000Z</time>
      </trkpt>
      <trkpt lat="43.632" lon="7.0331">
        <ele>200</ele>
        <time>2011-01-28T12:16:10.000Z</time>
      </trkpt>
      <trkpt lat="43.63202" lon="7.03287">
        <ele>202.19999694824</ele>
        <time>2011-01-28T12:16:17.000Z</time>
      </trkpt>
      <trkpt lat="43.63203" lon="7.03275">
        <ele>203.39999389648</ele>
        <time>2011-01-28T12:16:21.000Z</time>
      </trkpt>
      <trkpt lat="43.63211" lon="7.03269">
        <ele>206</ele>
        <time>2011-01-28T12:16:26.000Z</time>
      </trkpt>
      <trkpt lat="43.63213" lon="7.03275">
        <ele>206</ele>
        <time>2011-01-28T12:16:28.000Z</time>
      </trkpt>
      <trkpt lat="43.63219" lon="7.03295">
        <ele>205.39999389648</ele>
        <time>2011-01-28T12:16:35.000Z</time>
      </trkpt>
      <trkpt lat="43.63227" lon="7.03309">
        <ele>206.19999694824</ele>
        <time>2011-01-28T12:16:42.000Z</time>
      </trkpt>
      <trkpt lat="43.6324" lon="7.03312">
        <ele>208.60000610352</ele>
        <time>2011-01-28T12:16:49.000Z</time>
      </trkpt>
      <trkpt lat="43.63251" lon="7.03306">
        <ele>211.60000610352</ele>
        <time>2011-01-28T12:16:55.000Z</time>
      </trkpt>
      <trkpt lat="43.63263" lon="7.03295">
        <ele>213</ele>
        <time>2011-01-28T12:17:02.000Z</time>
      </trkpt>
      <trkpt lat="43.63277" lon="7.03282">
        <ele>214.60000610352</ele>
        <time>2011-01-28T12:17:09.000Z</time>
      </trkpt>
      <trkpt lat="43.63288" lon="7.03268">
        <ele>216.39999389648</ele>
        <time>2011-01-28T12:17:16.000Z</time>
      </trkpt>
      <trkpt lat="43.63298" lon="7.03256">
        <ele>218</ele>
        <time>2011-01-28T12:17:22.000Z</time>
      </trkpt>
      <trkpt lat="43.63313" lon="7.03244">
        <ele>219.60000610352</ele>
        <time>2011-01-28T12:17:29.000Z</time>
      </trkpt>
      <trkpt lat="43.63327" lon="7.03234">
        <ele>221.19999694824</ele>
        <time>2011-01-28T12:17:36.000Z</time>
      </trkpt>
      <trkpt lat="43.63342" lon="7.03221">
        <ele>221.80000305176</ele>
        <time>2011-01-28T12:17:44.000Z</time>
      </trkpt>
      <trkpt lat="43.63355" lon="7.03205">
        <ele>221.80000305176</ele>
        <time>2011-01-28T12:17:53.000Z</time>
      </trkpt>
      <trkpt lat="43.63368" lon="7.03192">
        <ele>221.60000610352</ele>
        <time>2011-01-28T12:18:01.000Z</time>
      </trkpt>
      <trkpt lat="43.63385" lon="7.03174">
        <ele>221.60000610352</ele>
        <time>2011-01-28T12:18:10.000Z</time>
      </trkpt>
      <trkpt lat="43.63397" lon="7.03155">
        <ele>221.60000610352</ele>
        <time>2011-01-28T12:18:16.000Z</time>
      </trkpt>
      <trkpt lat="43.63404" lon="7.03133">
        <ele>222.19999694824</ele>
        <time>2011-01-28T12:18:22.000Z</time>
      </trkpt>
      <trkpt lat="43.63409" lon="7.03112">
        <ele>223</ele>
        <time>2011-01-28T12:18:28.000Z</time>
      </trkpt>
      <trkpt lat="43.63417" lon="7.03086">
        <ele>223.60000610352</ele>
        <time>2011-01-28T12:18:35.000Z</time>
      </trkpt>
      <trkpt lat="43.6342" lon="7.03049">
        <ele>224</ele>
        <time>2011-01-28T12:18:44.000Z</time>
      </trkpt>
      <trkpt lat="43.63421" lon="7.03016">
        <ele>224.39999389648</ele>
        <time>2011-01-28T12:18:52.000Z</time>
      </trkpt>
      <trkpt lat="43.63424" lon="7.02985">
        <ele>224</ele>
        <time>2011-01-28T12:18:59.000Z</time>
      </trkpt>
      <trkpt lat="43.63426" lon="7.02953">
        <ele>223.60000610352</ele>
        <time>2011-01-28T12:19:06.000Z</time>
      </trkpt>
      <trkpt lat="43.63422" lon="7.02917">
        <ele>224.60000610352</ele>
        <time>2011-01-28T12:19:13.000Z</time>
      </trkpt>
      <trkpt lat="43.63411" lon="7.02867">
        <ele>223.80000305176</ele>
        <time>2011-01-28T12:19:22.000Z</time>
      </trkpt>
      <trkpt lat="43.63401" lon="7.02824">
        <ele>222.80000305176</ele>
        <time>2011-01-28T12:19:29.000Z</time>
      </trkpt>
      <trkpt lat="43.63393" lon="7.02794">
        <ele>222.19999694824</ele>
        <time>2011-01-28T12:19:33.000Z</time>
      </trkpt>
      <trkpt lat="43.63393" lon="7.02758">
        <ele>219.80000305176</ele>
        <time>2011-01-28T12:19:37.000Z</time>
      </trkpt>
      <trkpt lat="43.63399" lon="7.02744">
        <ele>218.80000305176</ele>
        <time>2011-01-28T12:19:39.000Z</time>
      </trkpt>
      <trkpt lat="43.63418" lon="7.02707">
        <ele>217.80000305176</ele>
        <time>2011-01-28T12:19:45.000Z</time>
      </trkpt>
      <trkpt lat="43.63425" lon="7.02694">
        <ele>217</ele>
        <time>2011-01-28T12:19:48.000Z</time>
      </trkpt>
      <trkpt lat="43.63432" lon="7.02679">
        <ele>216.39999389648</ele>
        <time>2011-01-28T12:19:54.000Z</time>
      </trkpt>
      <trkpt lat="43.63434" lon="7.02672">
        <ele>216.39999389648</ele>
        <time>2011-01-28T12:19:58.000Z</time>
      </trkpt>
      <trkpt lat="43.63428" lon="7.0267">
        <ele>217</ele>
        <time>2011-01-28T12:20:02.000Z</time>
      </trkpt>
      <trkpt lat="43.63415" lon="7.02673">
        <ele>217.80000305176</ele>
        <time>2011-01-28T12:20:06.000Z</time>
      </trkpt>
      <trkpt lat="43.63389" lon="7.02682">
        <ele>215.19999694824</ele>
        <time>2011-01-28T12:20:11.000Z</time>
      </trkpt>
      <trkpt lat="43.63365" lon="7.0269">
        <ele>213.80000305176</ele>
        <time>2011-01-28T12:20:16.000Z</time>
      </trkpt>
      <trkpt lat="43.63359" lon="7.02689">
        <ele>213.39999389648</ele>
        <time>2011-01-28T12:20:17.000Z</time>
      </trkpt>
      <trkpt lat="43.63322" lon="7.02695">
        <ele>212</ele>
        <time>2011-01-28T12:20:23.000Z</time>
      </trkpt>
      <trkpt lat="43.63296" lon="7.02699">
        <ele>211.39999389648</ele>
        <time>2011-01-28T12:20:27.000Z</time>
      </trkpt>
      <trkpt lat="43.63272" lon="7.02692">
        <ele>209.19999694824</ele>
        <time>2011-01-28T12:20:31.000Z</time>
      </trkpt>
      <trkpt lat="43.63248" lon="7.02679">
        <ele>205.19999694824</ele>
        <time>2011-01-28T12:20:36.000Z</time>
      </trkpt>
      <trkpt lat="43.63228" lon="7.02671">
        <ele>199.80000305176</ele>
        <time>2011-01-28T12:20:40.000Z</time>
      </trkpt>
      <trkpt lat="43.63212" lon="7.0267">
        <ele>196.60000610352</ele>
        <time>2011-01-28T12:20:43.000Z</time>
      </trkpt>
      <trkpt lat="43.6319" lon="7.02667">
        <ele>192.19999694824</ele>
        <time>2011-01-28T12:20:48.000Z</time>
      </trkpt>
      <trkpt lat="43.63185" lon="7.02666">
        <ele>191.19999694824</ele>
        <time>2011-01-28T12:20:49.000Z</time>
      </trkpt>
      <trkpt lat="43.63178" lon="7.02667">
        <ele>189.80000305176</ele>
        <time>2011-01-28T12:20:51.000Z</time>
      </trkpt>
      <trkpt lat="43.63166" lon="7.02672">
        <ele>188.80000305176</ele>
        <time>2011-01-28T12:20:55.000Z</time>
      </trkpt>
      <trkpt lat="43.63145" lon="7.02679">
        <ele>186</ele>
        <time>2011-01-28T12:21:02.000Z</time>
      </trkpt>
      <trkpt lat="43.63136" lon="7.02682">
        <ele>184.60000610352</ele>
        <time>2011-01-28T12:21:05.000Z</time>
      </trkpt>
      <trkpt lat="43.63133" lon="7.02689">
        <ele>184.80000305176</ele>
        <time>2011-01-28T12:21:09.000Z</time>
      </trkpt>
      <trkpt lat="43.63133" lon="7.02689">
        <ele>184.80000305176</ele>
        <time>2011-01-28T12:21:19.000Z</time>
      </trkpt>
      <trkpt lat="43.63134" lon="7.02687">
        <ele>184.80000305176</ele>
        <time>2011-01-28T12:21:30.000Z</time>
      </trkpt>
      <trkpt lat="43.63135" lon="7.02686">
        <ele>184.80000305176</ele>
        <time>2011-01-28T12:21:40.000Z</time>
      </trkpt>
      <trkpt lat="43.63137" lon="7.02685">
        <ele>185</ele>
        <time>2011-01-28T12:21:49.000Z</time>
      </trkpt>
      <trkpt lat="43.63138" lon="7.02685">
        <ele>185.19999694824</ele>
        <time>2011-01-28T12:22:01.000Z</time>
      </trkpt>
      <trkpt lat="43.63139" lon="7.02685">
        <ele>185.39999389648</ele>
        <time>2011-01-28T12:22:11.000Z</time>
      </trkpt>
      <trkpt lat="43.63135" lon="7.02684">
        <ele>184.60000610352</ele>
        <time>2011-01-28T12:22:40.000Z</time>
      </trkpt>
      <trkpt lat="43.63138" lon="7.02688">
        <ele>185.80000305176</ele>
        <time>2011-01-28T12:24:20.000Z</time>
      </trkpt>
      <trkpt lat="43.63138" lon="7.02688">
        <ele>185.80000305176</ele>
        <time>2011-01-28T12:24:21.000Z</time>
      </trkpt>
      <trkpt lat="43.63137" lon="7.0269">
        <ele>185.80000305176</ele>
        <time>2011-01-28T12:24:35.000Z</time>
      </trkpt>
      <trkpt lat="43.63136" lon="7.02687">
        <ele>185.19999694824</ele>
        <time>2011-01-28T12:24:48.000Z</time>
      </trkpt>
      <trkpt lat="43.63139" lon="7.02694">
        <ele>186.80000305176</ele>
        <time>2011-01-28T12:25:03.000Z</time>
      </trkpt>
      <trkpt lat="43.63138" lon="7.02696">
        <ele>187</ele>
        <time>2011-01-28T12:25:26.000Z</time>
      </trkpt>
      <trkpt lat="43.63138" lon="7.02686">
        <ele>185.39999389648</ele>
        <time>2011-01-28T12:25:57.000Z</time>
      </trkpt>
      <trkpt lat="43.63134" lon="7.02679">
        <ele>183.60000610352</ele>
        <time>2011-01-28T12:26:18.000Z</time>
      </trkpt>
      <trkpt lat="43.63135" lon="7.02681">
        <ele>184.19999694824</ele>
        <time>2011-01-28T12:26:36.000Z</time>
      </trkpt>
      <trkpt lat="43.63135" lon="7.02677">
        <ele>183.60000610352</ele>
        <time>2011-01-28T12:26:40.000Z</time>
      </trkpt>
      <trkpt lat="43.63134" lon="7.0268">
        <ele>183.80000305176</ele>
        <time>2011-01-28T12:26:50.000Z</time>
      </trkpt>
      <trkpt lat="43.63136" lon="7.02683">
        <ele>184.80000305176</ele>
        <time>2011-01-28T12:26:59.000Z</time>
      </trkpt>
      <trkpt lat="43.63139" lon="7.02687">
        <ele>185.80000305176</ele>
        <time>2011-01-28T12:27:12.000Z</time>
      </trkpt>
      <trkpt lat="43.6314" lon="7.02686">
        <ele>185.80000305176</ele>
        <time>2011-01-28T12:27:20.000Z</time>
      </trkpt>
      <trkpt lat="43.63142" lon="7.02689">
        <ele>186.80000305176</ele>
        <time>2011-01-28T12:27:55.000Z</time>
      </trkpt>
      <trkpt lat="43.63143" lon="7.02686">
        <ele>186.39999389648</ele>
        <time>2011-01-28T12:28:12.000Z</time>
      </trkpt>
      <trkpt lat="43.63143" lon="7.02687">
        <ele>186.60000610352</ele>
        <time>2011-01-28T12:28:23.000Z</time>
      </trkpt>
      <trkpt lat="43.63142" lon="7.02687">
        <ele>186.39999389648</ele>
        <time>2011-01-28T12:28:37.000Z</time>
      </trkpt>
      <trkpt lat="43.63141" lon="7.02688">
        <ele>186.39999389648</ele>
        <time>2011-01-28T12:28:52.000Z</time>
      </trkpt>
      <trkpt lat="43.63137" lon="7.02687">
        <ele>185.19999694824</ele>
        <time>2011-01-28T12:28:58.000Z</time>
      </trkpt>
      <trkpt lat="43.63135" lon="7.02686">
        <ele>184.80000305176</ele>
        <time>2011-01-28T12:29:06.000Z</time>
      </trkpt>
      <trkpt lat="43.6313" lon="7.02679">
        <ele>182.80000305176</ele>
        <time>2011-01-28T12:29:18.000Z</time>
      </trkpt>
      <trkpt lat="43.63136" lon="7.02686">
        <ele>185</ele>
        <time>2011-01-28T12:29:32.000Z</time>
      </trkpt>
      <trkpt lat="43.63138" lon="7.02688">
        <ele>185.60000610352</ele>
        <time>2011-01-28T12:29:53.000Z</time>
      </trkpt>
      <trkpt lat="43.63139" lon="7.02686">
        <ele>185.80000305176</ele>
        <time>2011-01-28T12:30:09.000Z</time>
      </trkpt>
      <trkpt lat="43.63139" lon="7.02689">
        <ele>186</ele>
        <time>2011-01-28T12:30:20.000Z</time>
      </trkpt>
      <trkpt lat="43.63137" lon="7.02687">
        <ele>185.39999389648</ele>
        <time>2011-01-28T12:30:38.000Z</time>
      </trkpt>
      <trkpt lat="43.63141" lon="7.02689">
        <ele>186.80000305176</ele>
        <time>2011-01-28T12:30:50.000Z</time>
      </trkpt>
      <trkpt lat="43.6314" lon="7.02689">
        <ele>186.19999694824</ele>
        <time>2011-01-28T12:30:57.000Z</time>
      </trkpt>
      <trkpt lat="43.63139" lon="7.02688">
        <ele>186</ele>
        <time>2011-01-28T12:31:04.000Z</time>
      </trkpt>
      <trkpt lat="43.6314" lon="7.02691">
        <ele>186.60000610352</ele>
        <time>2011-01-28T12:31:44.000Z</time>
      </trkpt>
      <trkpt lat="43.63139" lon="7.02687">
        <ele>185.80000305176</ele>
        <time>2011-01-28T12:32:31.000Z</time>
      </trkpt>
      <trkpt lat="43.63138" lon="7.02686">
        <ele>185.60000610352</ele>
        <time>2011-01-28T12:32:44.000Z</time>
      </trkpt>
      <trkpt lat="43.63137" lon="7.02684">
        <ele>184.80000305176</ele>
        <time>2011-01-28T12:37:02.000Z</time>
      </trkpt>
      <trkpt lat="43.63137" lon="7.02684">
        <ele>184.80000305176</ele>
        <time>2011-01-28T12:37:03.000Z</time>
      </trkpt>
      <trkpt lat="43.63139" lon="7.02678">
        <ele>184.60000610352</ele>
        <time>2011-01-28T12:37:09.000Z</time>
      </trkpt>
      <trkpt lat="43.63145" lon="7.02664">
        <ele>183.80000305176</ele>
        <time>2011-01-28T12:37:15.000Z</time>
      </trkpt>
      <trkpt lat="43.63153" lon="7.02638">
        <ele>182.39999389648</ele>
        <time>2011-01-28T12:37:22.000Z</time>
      </trkpt>
      <trkpt lat="43.63153" lon="7.02637">
        <ele>182.19999694824</ele>
        <time>2011-01-28T12:37:23.000Z</time>
      </trkpt>
      <trkpt lat="43.63151" lon="7.02624">
        <ele>180.80000305176</ele>
        <time>2011-01-28T12:37:28.000Z</time>
      </trkpt>
      <trkpt lat="43.63149" lon="7.02596">
        <ele>177.80000305176</ele>
        <time>2011-01-28T12:37:32.000Z</time>
      </trkpt>
      <trkpt lat="43.63147" lon="7.02579">
        <ele>176.80000305176</ele>
        <time>2011-01-28T12:37:36.000Z</time>
      </trkpt>
      <trkpt lat="43.63143" lon="7.02557">
        <ele>178.39999389648</ele>
        <time>2011-01-28T12:37:42.000Z</time>
      </trkpt>
      <trkpt lat="43.63143" lon="7.02552">
        <ele>178.80000305176</ele>
        <time>2011-01-28T12:37:43.000Z</time>
      </trkpt>
      <trkpt lat="43.63134" lon="7.02546">
        <ele>179.60000610352</ele>
        <time>2011-01-28T12:37:47.000Z</time>
      </trkpt>
      <trkpt lat="43.63114" lon="7.02544">
        <ele>180.19999694824</ele>
        <time>2011-01-28T12:37:51.000Z</time>
      </trkpt>
      <trkpt lat="43.63101" lon="7.02543">
        <ele>180.80000305176</ele>
        <time>2011-01-28T12:37:53.000Z</time>
      </trkpt>
      <trkpt lat="43.63079" lon="7.02553">
        <ele>180.39999389648</ele>
        <time>2011-01-28T12:37:57.000Z</time>
      </trkpt>
      <trkpt lat="43.63076" lon="7.0256">
        <ele>180</ele>
        <time>2011-01-28T12:37:58.000Z</time>
      </trkpt>
      <trkpt lat="43.63058" lon="7.02591">
        <ele>179</ele>
        <time>2011-01-28T12:38:05.000Z</time>
      </trkpt>
      <trkpt lat="43.63045" lon="7.02598">
        <ele>180.60000610352</ele>
        <time>2011-01-28T12:38:11.000Z</time>
      </trkpt>
      <trkpt lat="43.63042" lon="7.02597">
        <ele>181</ele>
        <time>2011-01-28T12:38:12.000Z</time>
      </trkpt>
      <trkpt lat="43.63036" lon="7.02612">
        <ele>180.60000610352</ele>
        <time>2011-01-28T12:38:16.000Z</time>
      </trkpt>
      <trkpt lat="43.63025" lon="7.02646">
        <ele>178</ele>
        <time>2011-01-28T12:38:22.000Z</time>
      </trkpt>
      <trkpt lat="43.63008" lon="7.02672">
        <ele>176</ele>
        <time>2011-01-28T12:38:27.000Z</time>
      </trkpt>
      <trkpt lat="43.63004" lon="7.02677">
        <ele>175.80000305176</ele>
        <time>2011-01-28T12:38:28.000Z</time>
      </trkpt>
      <trkpt lat="43.62997" lon="7.02686">
        <ele>175</ele>
        <time>2011-01-28T12:38:30.000Z</time>
      </trkpt>
      <trkpt lat="43.62986" lon="7.02711">
        <ele>172.39999389648</ele>
        <time>2011-01-28T12:38:34.000Z</time>
      </trkpt>
      <trkpt lat="43.62976" lon="7.02727">
        <ele>170.80000305176</ele>
        <time>2011-01-28T12:38:37.000Z</time>
      </trkpt>
      <trkpt lat="43.62953" lon="7.02751">
        <ele>168.80000305176</ele>
        <time>2011-01-28T12:38:43.000Z</time>
      </trkpt>
      <trkpt lat="43.62938" lon="7.02764">
        <ele>168.60000610352</ele>
        <time>2011-01-28T12:38:46.000Z</time>
      </trkpt>
      <trkpt lat="43.62925" lon="7.02778">
        <ele>168.39999389648</ele>
        <time>2011-01-28T12:38:50.000Z</time>
      </trkpt>
      <trkpt lat="43.62928" lon="7.02778">
        <ele>168.39999389648</ele>
        <time>2011-01-28T12:38:58.000Z</time>
      </trkpt>
      <trkpt lat="43.62931" lon="7.02774">
        <ele>168.60000610352</ele>
        <time>2011-01-28T12:39:02.000Z</time>
      </trkpt>
      <trkpt lat="43.62933" lon="7.02773">
        <ele>168.60000610352</ele>
        <time>2011-01-28T12:39:03.000Z</time>
      </trkpt>
      <trkpt lat="43.62934" lon="7.0278">
        <ele>168.39999389648</ele>
        <time>2011-01-28T12:39:07.000Z</time>
      </trkpt>
      <trkpt lat="43.62929" lon="7.02786">
        <ele>168.39999389648</ele>
        <time>2011-01-28T12:39:10.000Z</time>
      </trkpt>
      <trkpt lat="43.62921" lon="7.02786">
        <ele>168.39999389648</ele>
        <time>2011-01-28T12:39:15.000Z</time>
      </trkpt>
      <trkpt lat="43.62924" lon="7.02796">
        <ele>168.19999694824</ele>
        <time>2011-01-28T12:39:26.000Z</time>
      </trkpt>
      <trkpt lat="43.62922" lon="7.02792">
        <ele>168.39999389648</ele>
        <time>2011-01-28T12:39:40.000Z</time>
      </trkpt>
      <trkpt lat="43.62912" lon="7.02799">
        <ele>169</ele>
        <time>2011-01-28T12:39:46.000Z</time>
      </trkpt>
      <trkpt lat="43.6291" lon="7.02806">
        <ele>169.19999694824</ele>
        <time>2011-01-28T12:39:48.000Z</time>
      </trkpt>
      <trkpt lat="43.6291" lon="7.02834">
        <ele>169.39999389648</ele>
        <time>2011-01-28T12:39:55.000Z</time>
      </trkpt>
      <trkpt lat="43.62912" lon="7.02864">
        <ele>170.39999389648</ele>
        <time>2011-01-28T12:40:03.000Z</time>
      </trkpt>
      <trkpt lat="43.62914" lon="7.02898">
        <ele>171.19999694824</ele>
        <time>2011-01-28T12:40:12.000Z</time>
      </trkpt>
      <trkpt lat="43.62915" lon="7.02919">
        <ele>171.39999389648</ele>
        <time>2011-01-28T12:40:18.000Z</time>
      </trkpt>
      <trkpt lat="43.62914" lon="7.02949">
        <ele>172.19999694824</ele>
        <time>2011-01-28T12:40:26.000Z</time>
      </trkpt>
      <trkpt lat="43.62907" lon="7.02991">
        <ele>175.80000305176</ele>
        <time>2011-01-28T12:40:37.000Z</time>
      </trkpt>
      <trkpt lat="43.629" lon="7.0302">
        <ele>179.19999694824</ele>
        <time>2011-01-28T12:40:45.000Z</time>
      </trkpt>
      <trkpt lat="43.62896" lon="7.03054">
        <ele>181.60000610352</ele>
        <time>2011-01-28T12:40:54.000Z</time>
      </trkpt>
      <trkpt lat="43.62899" lon="7.03084">
        <ele>181.19999694824</ele>
        <time>2011-01-28T12:41:02.000Z</time>
      </trkpt>
      <trkpt lat="43.62904" lon="7.03113">
        <ele>179.80000305176</ele>
        <time>2011-01-28T12:41:10.000Z</time>
      </trkpt>
      <trkpt lat="43.62902" lon="7.03138">
        <ele>181.19999694824</ele>
        <time>2011-01-28T12:41:17.000Z</time>
      </trkpt>
      <trkpt lat="43.62893" lon="7.03173">
        <ele>185.80000305176</ele>
        <time>2011-01-28T12:41:27.000Z</time>
      </trkpt>
      <trkpt lat="43.62882" lon="7.03199">
        <ele>190.60000610352</ele>
        <time>2011-01-28T12:41:35.000Z</time>
      </trkpt>
      <trkpt lat="43.62877" lon="7.03227">
        <ele>193.19999694824</ele>
        <time>2011-01-28T12:41:43.000Z</time>
      </trkpt>
      <trkpt lat="43.62881" lon="7.03244">
        <ele>192.60000610352</ele>
        <time>2011-01-28T12:41:48.000Z</time>
      </trkpt>
      <trkpt lat="43.62893" lon="7.03264">
        <ele>191</ele>
        <time>2011-01-28T12:41:55.000Z</time>
      </trkpt>
      <trkpt lat="43.62904" lon="7.03287">
        <ele>190.60000610352</ele>
        <time>2011-01-28T12:42:03.000Z</time>
      </trkpt>
      <trkpt lat="43.62913" lon="7.03309">
        <ele>191</ele>
        <time>2011-01-28T12:42:10.000Z</time>
      </trkpt>
      <trkpt lat="43.62916" lon="7.03336">
        <ele>193</ele>
        <time>2011-01-28T12:42:18.000Z</time>
      </trkpt>
      <trkpt lat="43.62916" lon="7.03367">
        <ele>194.60000610352</ele>
        <time>2011-01-28T12:42:27.000Z</time>
      </trkpt>
      <trkpt lat="43.62911" lon="7.03404">
        <ele>197</ele>
        <time>2011-01-28T12:42:38.000Z</time>
      </trkpt>
      <trkpt lat="43.62904" lon="7.03422">
        <ele>198.19999694824</ele>
        <time>2011-01-28T12:42:44.000Z</time>
      </trkpt>
      <trkpt lat="43.62893" lon="7.03444">
        <ele>199.60000610352</ele>
        <time>2011-01-28T12:42:53.000Z</time>
      </trkpt>
      <trkpt lat="43.62882" lon="7.03465">
        <ele>200.60000610352</ele>
        <time>2011-01-28T12:43:02.000Z</time>
      </trkpt>
      <trkpt lat="43.62872" lon="7.03489">
        <ele>201.19999694824</ele>
        <time>2011-01-28T12:43:10.000Z</time>
      </trkpt>
      <trkpt lat="43.62854" lon="7.0352">
        <ele>202.19999694824</ele>
        <time>2011-01-28T12:43:20.000Z</time>
      </trkpt>
      <trkpt lat="43.62841" lon="7.03547">
        <ele>202.39999389648</ele>
        <time>2011-01-28T12:43:29.000Z</time>
      </trkpt>
      <trkpt lat="43.62837" lon="7.03567">
        <ele>202.19999694824</ele>
        <time>2011-01-28T12:43:35.000Z</time>
      </trkpt>
      <trkpt lat="43.62835" lon="7.03586">
        <ele>201.80000305176</ele>
        <time>2011-01-28T12:43:38.000Z</time>
      </trkpt>
      <trkpt lat="43.62841" lon="7.03607">
        <ele>201</ele>
        <time>2011-01-28T12:43:41.000Z</time>
      </trkpt>
      <trkpt lat="43.6285" lon="7.03628">
        <ele>200.80000305176</ele>
        <time>2011-01-28T12:43:44.000Z</time>
      </trkpt>
      <trkpt lat="43.62854" lon="7.03638">
        <ele>200.80000305176</ele>
        <time>2011-01-28T12:43:47.000Z</time>
      </trkpt>
    </trkseg>
  </trk>
</gpx>